Time,TemperatureF,DewpointF,PressureIn,WindDirection,WindDirectionDegrees,WindSpeedMPH,WindSpeedGustMPH,Humidity,HourlyPrecipIn,Conditions,Clouds,dailyrainin,SoftwareType,DateUTC
2013-01-21 00:00:00,12.3,6.1,30.04,NNW,338,0.0,0.0,76,0.00,,,0.00,WUHU215HW,2013-01-21 06:00:00,
2013-01-21 00:06:00,12.5,6.3,30.04,NNW,338,0.0,0.0,76,0.00,,,0.00,WUHU215HW,2013-01-21 06:06:00,
2013-01-21 00:07:00,12.7,6.5,30.04,NNW,338,0.0,0.0,76,0.00,,,0.00,WUHU215HW,2013-01-21 06:07:00,
2013-01-21 00:08:00,12.7,6.5,30.04,NNW,338,0.0,0.0,76,0.00,,,0.00,WUHU215HW,2013-01-21 06:08:00,
2013-01-21 00:11:00,12.7,6.5,30.04,NNW,338,0.0,0.0,76,0.00,,,0.00,WUHU215HW,2013-01-21 06:11:00,
2013-01-21 00:14:00,12.7,6.5,30.04,NNW,338,0.0,0.0,76,0.00,,,0.00,WUHU215HW,2013-01-21 06:14:00,
2013-01-21 00:15:00,13.1,6.5,30.04,NNW,338,0.0,0.0,77,0.00,,,0.00,WUHU215HW,2013-01-21 06:15:00,
2013-01-21 00:17:00,13.1,6.5,30.04,NNW,338,0.0,0.0,77,0.00,,,0.00,WUHU215HW,2013-01-21 06:17:00,
2013-01-21 00:19:00,13.2,6.5,30.04,NW,315,0.0,0.0,77,0.00,,,0.00,WUHU215HW,2013-01-21 06:19:00,
2013-01-21 00:23:00,13.6,7.7,30.04,NW,315,0.0,0.0,77,0.00,,,0.00,WUHU215HW,2013-01-21 06:23:00,
2013-01-21 00:25:00,13.8,7.9,30.04,NW,315,0.0,0.0,77,0.00,,,0.00,WUHU215HW,2013-01-21 06:25:00,
2013-01-21 00:26:00,13.8,7.9,30.04,NW,315,0.0,0.0,77,0.00,,,0.00,WUHU215HW,2013-01-21 06:26:00,
2013-01-21 00:31:00,14.5,8.6,30.04,West,270,0.0,0.0,77,0.00,,,0.00,WUHU215HW,2013-01-21 06:31:00,
2013-01-21 00:32:00,14.5,8.6,30.04,West,270,0.0,0.0,77,0.00,,,0.00,WUHU215HW,2013-01-21 06:32:00,
2013-01-21 00:38:00,15.0,9.1,30.04,SW,225,0.0,0.0,77,0.00,,,0.00,WUHU215HW,2013-01-21 06:38:00,
2013-01-21 00:39:00,15.2,9.6,30.04,SW,225,0.0,0.0,78,0.00,,,0.00,WUHU215HW,2013-01-21 06:39:00,
2013-01-21 00:40:00,15.2,9.6,30.04,SW,225,0.0,0.0,78,0.00,,,0.00,WUHU215HW,2013-01-21 06:40:00,
2013-01-21 00:44:00,15.6,9.6,30.04,SW,225,0.0,0.0,77,0.00,,,0.00,WUHU215HW,2013-01-21 06:44:00,
2013-01-21 00:46:00,15.6,9.6,30.04,SW,225,0.0,0.0,77,0.00,,,0.00,WUHU215HW,2013-01-21 06:46:00,
2013-01-21 00:47:00,15.6,9.6,30.04,SW,225,0.0,0.0,77,0.00,,,0.00,WUHU215HW,2013-01-21 06:47:00,
2013-01-21 00:51:00,16.1,10.1,30.04,SW,225,0.0,0.0,77,0.00,,,0.00,WUHU215HW,2013-01-21 06:51:00,
2013-01-21 00:53:00,16.3,10.3,30.04,SW,225,0.0,0.0,77,0.00,,,0.00,WUHU215HW,2013-01-21 06:53:00,
2013-01-21 00:57:00,16.3,10.3,30.04,SW,225,0.0,0.0,77,0.00,,,0.00,WUHU215HW,2013-01-21 06:57:00,
2013-01-21 00:59:00,16.5,10.5,30.04,SSW,203,0.0,0.0,77,0.00,,,0.00,WUHU215HW,2013-01-21 06:59:00,
2013-01-21 01:00:00,16.5,10.5,30.04,SSW,203,0.0,0.0,77,0.00,,,0.00,WUHU215HW,2013-01-21 07:00:00,
2013-01-21 01:02:00,16.5,10.5,30.04,SSW,203,0.0,0.0,77,0.00,,,0.00,WUHU215HW,2013-01-21 07:02:00,
2013-01-21 01:04:00,16.7,10.6,30.04,SSW,203,0.0,0.0,77,0.00,,,0.00,WUHU215HW,2013-01-21 07:04:00,
2013-01-21 01:05:00,16.8,10.8,30.04,SW,225,0.0,0.0,77,0.00,,,0.00,WUHU215HW,2013-01-21 07:05:00,
2013-01-21 01:09:00,16.8,10.8,30.04,WNW,293,0.0,0.0,77,0.00,,,0.00,WUHU215HW,2013-01-21 07:09:00,
2013-01-21 01:10:00,16.8,10.8,30.04,WNW,293,0.0,0.0,77,0.00,,,0.00,WUHU215HW,2013-01-21 07:10:00,
2013-01-21 01:14:00,17.2,10.8,30.04,North,0,0.0,0.0,76,0.00,,,0.00,WUHU215HW,2013-01-21 07:14:00,
2013-01-21 01:15:00,17.2,10.8,30.04,NNE,23,0.0,0.0,76,0.00,,,0.00,WUHU215HW,2013-01-21 07:15:00,
2013-01-21 01:18:00,16.8,10.5,30.04,NNE,23,0.0,0.0,76,0.00,,,0.00,WUHU215HW,2013-01-21 07:18:00,
2013-01-21 01:19:00,16.8,10.5,30.04,NNE,23,0.0,0.0,76,0.00,,,0.00,WUHU215HW,2013-01-21 07:19:00,
2013-01-21 01:24:00,16.8,10.5,30.04,North,0,0.0,0.0,76,0.00,,,0.00,WUHU215HW,2013-01-21 07:24:00,
2013-01-21 01:25:00,16.8,10.5,30.04,North,0,0.0,0.0,76,0.00,,,0.00,WUHU215HW,2013-01-21 07:25:00,
2013-01-21 01:26:00,16.7,10.5,30.04,NNE,23,0.0,0.0,76,0.00,,,0.00,WUHU215HW,2013-01-21 07:26:00,
2013-01-21 01:29:00,16.7,10.5,30.04,North,0,0.0,0.0,76,0.00,,,0.00,WUHU215HW,2013-01-21 07:29:00,
2013-01-21 01:30:00,16.7,10.5,30.04,North,0,0.0,0.0,76,0.00,,,0.00,WUHU215HW,2013-01-21 07:30:00,
2013-01-21 01:32:00,16.7,10.3,30.04,North,0,0.0,0.0,76,0.00,,,0.00,WUHU215HW,2013-01-21 07:32:00,
2013-01-21 01:34:00,16.5,10.2,30.04,North,0,0.0,0.0,76,0.00,,,0.00,WUHU215HW,2013-01-21 07:34:00,
2013-01-21 01:35:00,16.3,10.0,30.04,NNE,23,0.0,0.0,76,0.00,,,0.00,WUHU215HW,2013-01-21 07:35:00,
2013-01-21 01:39:00,16.1,9.8,30.04,NNE,23,0.0,0.0,76,0.00,,,0.00,WUHU215HW,2013-01-21 07:39:00,
2013-01-21 01:40:00,16.1,9.8,30.04,NNE,23,0.0,0.0,76,0.00,,,0.00,WUHU215HW,2013-01-21 07:40:00,
2013-01-21 01:41:00,16.1,9.8,30.04,NNE,23,0.0,0.0,76,0.00,,,0.00,WUHU215HW,2013-01-21 07:41:00,
2013-01-21 01:46:00,15.6,9.6,30.04,North,0,0.0,0.0,77,0.00,,,0.00,WUHU215HW,2013-01-21 07:46:00,
2013-01-21 01:47:00,15.6,9.6,30.04,North,0,0.0,0.0,77,0.00,,,0.00,WUHU215HW,2013-01-21 07:47:00,
2013-01-21 01:50:00,15.6,9.6,30.04,NNE,23,0.0,0.0,77,0.00,,,0.00,WUHU215HW,2013-01-21 07:50:00,
2013-01-21 01:51:00,15.6,9.6,30.04,NNE,23,0.0,0.0,77,0.00,,,0.00,WUHU215HW,2013-01-21 07:51:00,
2013-01-21 01:55:00,15.4,9.1,30.04,NNE,23,0.0,0.0,76,0.00,,,0.00,WUHU215HW,2013-01-21 07:55:00,
2013-01-21 01:58:00,15.2,9.0,30.04,NNE,23,0.0,0.0,76,0.00,,,0.00,WUHU215HW,2013-01-21 07:58:00,
2013-01-21 01:59:00,15.2,9.0,30.04,NNE,23,0.0,0.0,76,0.00,,,0.00,WUHU215HW,2013-01-21 07:59:00,
2013-01-21 02:03:00,15.0,8.8,30.04,NNE,23,0.0,0.0,76,0.00,,,0.00,WUHU215HW,2013-01-21 08:03:00,
2013-01-21 02:04:00,15.0,8.8,30.04,NNE,23,0.0,0.0,76,0.00,,,0.00,WUHU215HW,2013-01-21 08:04:00,
2013-01-21 02:05:00,14.9,8.6,30.04,NNE,23,0.0,0.0,76,0.00,,,0.00,WUHU215HW,2013-01-21 08:05:00,
2013-01-21 02:07:00,14.9,8.6,30.04,NNE,23,0.0,0.0,76,0.00,,,0.00,WUHU215HW,2013-01-21 08:07:00,
2013-01-21 02:10:00,14.7,8.4,30.04,NNE,23,0.0,0.0,76,0.00,,,0.00,WUHU215HW,2013-01-21 08:10:00,
2013-01-21 02:13:00,14.7,8.4,30.04,NNE,23,0.0,0.0,76,0.00,,,0.00,WUHU215HW,2013-01-21 08:13:00,
2013-01-21 02:14:00,14.7,8.4,30.04,NNE,23,0.0,0.0,76,0.00,,,0.00,WUHU215HW,2013-01-21 08:14:00,
2013-01-21 02:15:00,14.7,8.4,30.04,NNE,23,0.0,0.0,76,0.00,,,0.00,WUHU215HW,2013-01-21 08:15:00,
2013-01-21 02:19:00,14.7,8.4,30.04,NNE,23,0.0,0.0,76,0.00,,,0.00,WUHU215HW,2013-01-21 08:19:00,
2013-01-21 02:20:00,14.7,8.4,30.04,NNE,23,0.0,0.0,76,0.00,,,0.00,WUHU215HW,2013-01-21 08:20:00,
2013-01-21 02:22:00,14.7,8.4,30.04,NNE,23,0.0,0.0,76,0.00,,,0.00,WUHU215HW,2013-01-21 08:22:00,
2013-01-21 02:25:00,14.7,8.4,30.04,NNE,23,0.0,0.0,76,0.00,,,0.00,WUHU215HW,2013-01-21 08:25:00,
2013-01-21 02:30:00,14.7,8.4,30.04,NNE,23,0.0,0.0,76,0.00,,,0.00,WUHU215HW,2013-01-21 08:30:00,
2013-01-21 02:32:00,14.7,8.4,30.04,NNE,23,0.0,0.0,76,0.00,,,0.00,WUHU215HW,2013-01-21 08:32:00,
2013-01-21 02:34:00,14.7,8.4,30.04,NNE,23,0.0,0.0,76,0.00,,,0.00,WUHU215HW,2013-01-21 08:34:00,
2013-01-21 02:35:00,14.7,8.4,30.04,North,0,0.0,0.0,76,0.00,,,0.00,WUHU215HW,2013-01-21 08:35:00,
2013-01-21 02:37:00,14.7,8.4,30.04,North,0,0.0,0.0,77,0.00,,,0.00,WUHU215HW,2013-01-21 08:37:00,
2013-01-21 02:39:00,14.7,8.7,30.04,North,0,0.0,0.0,77,0.00,,,0.00,WUHU215HW,2013-01-21 08:39:00,
2013-01-21 02:42:00,14.7,8.7,30.04,North,0,0.0,0.0,77,0.00,,,0.00,WUHU215HW,2013-01-21 08:42:00,
2013-01-21 02:44:00,14.7,8.7,30.04,North,0,0.0,0.0,77,0.00,,,0.00,WUHU215HW,2013-01-21 08:44:00,
2013-01-21 02:45:00,14.7,8.7,30.04,North,0,0.0,0.0,77,0.00,,,0.00,WUHU215HW,2013-01-21 08:45:00,
2013-01-21 02:49:00,14.7,8.7,30.04,NNE,23,0.0,0.0,77,0.00,,,0.00,WUHU215HW,2013-01-21 08:49:00,
2013-01-21 02:50:00,14.7,8.7,30.04,NNE,23,0.0,0.0,77,0.00,,,0.00,WUHU215HW,2013-01-21 08:50:00,
2013-01-21 02:51:00,14.7,8.7,30.04,NNE,23,0.0,0.0,77,0.00,,,0.00,WUHU215HW,2013-01-21 08:51:00,
2013-01-21 02:56:00,14.7,8.7,30.04,NNE,23,0.0,0.0,77,0.00,,,0.00,WUHU215HW,2013-01-21 08:56:00,
2013-01-21 02:57:00,14.7,8.7,30.04,NNE,23,0.0,0.0,77,0.00,,,0.00,WUHU215HW,2013-01-21 08:57:00,
2013-01-21 03:01:00,14.7,8.7,30.04,North,0,0.0,0.0,77,0.00,,,0.00,WUHU215HW,2013-01-21 09:01:00,
2013-01-21 03:02:00,14.7,8.7,30.04,North,0,0.0,0.0,77,0.00,,,0.00,WUHU215HW,2013-01-21 09:02:00,
2013-01-21 03:03:00,14.9,8.9,30.04,North,0,0.0,0.0,77,0.00,,,0.00,WUHU215HW,2013-01-21 09:03:00,
2013-01-21 03:07:00,14.9,8.9,30.04,North,0,0.0,0.0,77,0.00,,,0.00,WUHU215HW,2013-01-21 09:07:00,
2013-01-21 03:08:00,14.9,8.9,30.04,North,0,0.0,0.0,77,0.00,,,0.00,WUHU215HW,2013-01-21 09:08:00,
2013-01-21 03:13:00,15.0,9.1,30.04,NNW,338,0.0,0.0,77,0.00,,,0.00,WUHU215HW,2013-01-21 09:13:00,
2013-01-21 03:15:00,15.0,9.1,30.04,NNW,338,0.0,0.0,77,0.00,,,0.00,WUHU215HW,2013-01-21 09:15:00,
2013-01-21 03:18:00,15.0,9.1,30.04,North,0,0.0,0.0,77,0.00,,,0.00,WUHU215HW,2013-01-21 09:18:00,
2013-01-21 03:19:00,15.0,9.1,30.04,North,0,0.0,0.0,77,0.00,,,0.00,WUHU215HW,2013-01-21 09:19:00,
2013-01-21 03:20:00,15.0,9.1,30.04,North,0,0.0,0.0,77,0.00,,,0.00,WUHU215HW,2013-01-21 09:20:00,
2013-01-21 03:22:00,15.0,9.1,30.04,North,0,0.0,0.0,77,0.00,,,0.00,WUHU215HW,2013-01-21 09:22:00,
2013-01-21 03:24:00,15.2,9.1,30.04,North,0,0.0,0.0,77,0.00,,,0.00,WUHU215HW,2013-01-21 09:24:00,
2013-01-21 03:25:00,15.2,9.1,30.04,North,0,0.0,0.0,77,0.00,,,0.00,WUHU215HW,2013-01-21 09:25:00,
2013-01-21 03:26:00,15.2,9.1,30.04,North,0,0.0,0.0,78,0.00,,,0.00,WUHU215HW,2013-01-21 09:26:00,
2013-01-21 03:30:00,15.2,9.7,30.04,NNW,338,0.0,0.0,78,0.00,,,0.00,WUHU215HW,2013-01-21 09:30:00,
2013-01-21 03:32:00,15.4,9.7,30.04,NNW,338,0.0,0.0,78,0.00,,,0.00,WUHU215HW,2013-01-21 09:32:00,
2013-01-21 03:33:00,15.4,9.7,30.04,North,0,0.0,0.0,78,0.00,,,0.00,WUHU215HW,2013-01-21 09:33:00,
2013-01-21 03:36:00,15.6,9.6,30.04,NNE,23,0.0,0.0,77,0.00,,,0.00,WUHU215HW,2013-01-21 09:36:00,
2013-01-21 03:41:00,15.6,9.6,30.04,NNE,23,0.0,0.0,77,0.00,,,0.00,WUHU215HW,2013-01-21 09:41:00,
2013-01-21 03:43:00,15.6,9.6,30.04,North,0,0.0,0.0,77,0.00,,,0.00,WUHU215HW,2013-01-21 09:43:00,
2013-01-21 03:45:00,15.6,9.6,30.04,NNW,338,0.0,0.0,77,0.00,,,0.00,WUHU215HW,2013-01-21 09:45:00,
2013-01-21 03:48:00,15.6,9.6,30.04,NNW,338,0.0,0.0,77,0.00,,,0.00,WUHU215HW,2013-01-21 09:48:00,
2013-01-21 03:49:00,15.6,9.6,30.04,NNW,338,0.0,0.0,77,0.00,,,0.00,WUHU215HW,2013-01-21 09:49:00,
2013-01-21 03:50:00,15.6,9.6,30.04,North,0,0.0,0.0,77,0.00,,,0.00,WUHU215HW,2013-01-21 09:50:00,
2013-01-21 03:51:00,15.6,9.6,30.04,North,0,0.0,0.0,77,0.00,,,0.00,WUHU215HW,2013-01-21 09:51:00,
2013-01-21 03:55:00,15.8,9.6,30.04,North,0,0.0,0.0,77,0.00,,,0.00,WUHU215HW,2013-01-21 09:55:00,
2013-01-21 03:56:00,15.8,9.8,30.04,North,0,0.0,0.0,77,0.00,,,0.00,WUHU215HW,2013-01-21 09:56:00,
2013-01-21 03:58:00,15.8,9.8,30.04,North,0,0.0,0.0,77,0.00,,,0.00,WUHU215HW,2013-01-21 09:58:00,
2013-01-21 04:01:00,15.8,9.8,30.04,NNE,23,0.0,0.0,77,0.00,,,0.00,WUHU215HW,2013-01-21 10:01:00,
2013-01-21 04:02:00,15.8,9.8,30.04,NNE,23,0.0,0.0,77,0.00,,,0.00,WUHU215HW,2013-01-21 10:02:00,
2013-01-21 04:06:00,15.8,9.8,30.04,North,0,0.0,0.0,77,0.00,,,0.00,WUHU215HW,2013-01-21 10:06:00,
2013-01-21 04:07:00,15.8,9.8,30.04,NW,315,0.0,0.0,77,0.00,,,0.00,WUHU215HW,2013-01-21 10:07:00,
2013-01-21 04:11:00,15.6,9.6,30.04,North,0,0.0,0.0,77,0.00,,,0.00,WUHU215HW,2013-01-21 10:11:00,
2013-01-21 04:16:00,15.6,9.6,30.04,North,0,0.0,0.0,77,0.00,,,0.00,WUHU215HW,2013-01-21 10:16:00,
2013-01-21 04:17:00,15.6,9.6,30.04,North,0,0.0,0.0,77,0.00,,,0.00,WUHU215HW,2013-01-21 10:17:00,
2013-01-21 04:20:00,15.6,9.6,30.04,NNE,23,0.0,0.0,77,0.00,,,0.00,WUHU215HW,2013-01-21 10:20:00,
2013-01-21 04:21:00,15.6,9.6,30.04,NNE,23,0.0,0.0,77,0.00,,,0.00,WUHU215HW,2013-01-21 10:21:00,
2013-01-21 04:23:00,15.4,9.4,30.04,NNE,23,0.0,0.0,77,0.00,,,0.00,WUHU215HW,2013-01-21 10:23:00,
2013-01-21 04:25:00,15.4,9.4,30.04,North,0,0.0,0.0,77,0.00,,,0.00,WUHU215HW,2013-01-21 10:25:00,
2013-01-21 04:27:00,15.2,9.3,30.04,North,0,0.0,0.0,77,0.00,,,0.00,WUHU215HW,2013-01-21 10:27:00,
2013-01-21 04:28:00,15.2,9.3,30.04,North,0,0.0,0.0,77,0.00,,,0.00,WUHU215HW,2013-01-21 10:28:00,
2013-01-21 04:31:00,15.0,9.1,30.04,NNE,23,0.0,0.0,77,0.00,,,0.00,WUHU215HW,2013-01-21 10:31:00,
2013-01-21 04:36:00,14.9,8.9,30.04,North,0,0.0,0.0,77,0.00,,,0.00,WUHU215HW,2013-01-21 10:36:00,
2013-01-21 04:38:00,14.7,8.7,30.04,NNE,23,0.0,0.0,77,0.00,,,0.00,WUHU215HW,2013-01-21 10:38:00,
2013-01-21 04:39:00,14.7,8.7,30.04,NNW,338,0.0,0.0,77,0.00,,,0.00,WUHU215HW,2013-01-21 10:39:00,
2013-01-21 04:42:00,14.7,8.7,30.04,North,0,0.0,0.0,77,0.00,,,0.00,WUHU215HW,2013-01-21 10:42:00,
2013-01-21 04:45:00,14.7,8.7,30.04,North,0,0.0,0.0,77,0.00,,,0.00,WUHU215HW,2013-01-21 10:45:00,
2013-01-21 04:46:00,14.7,8.7,30.04,North,0,0.0,0.0,77,0.00,,,0.00,WUHU215HW,2013-01-21 10:46:00,
2013-01-21 04:50:00,14.7,8.7,30.04,NNE,23,0.0,0.0,77,0.00,,,0.00,WUHU215HW,2013-01-21 10:50:00,
2013-01-21 04:51:00,14.7,8.7,30.04,NNE,23,0.0,0.0,77,0.00,,,0.00,WUHU215HW,2013-01-21 10:51:00,
2013-01-21 04:53:00,14.5,8.7,30.04,North,0,0.0,0.0,77,0.00,,,0.00,WUHU215HW,2013-01-21 10:53:00,
2013-01-21 04:55:00,14.5,8.7,30.04,NNE,23,0.0,0.0,77,0.00,,,0.00,WUHU215HW,2013-01-21 10:55:00,
2013-01-21 04:57:00,14.3,8.4,30.04,NNE,23,0.0,0.0,77,0.00,,,0.00,WUHU215HW,2013-01-21 10:57:00,
2013-01-21 04:58:00,14.3,8.4,30.04,North,0,0.0,0.0,77,0.00,,,0.00,WUHU215HW,2013-01-21 10:58:00,
2013-01-21 05:00:00,14.3,8.4,30.04,NNE,23,0.0,0.0,77,0.00,,,0.00,WUHU215HW,2013-01-21 11:00:00,
2013-01-21 05:02:00,14.3,8.4,30.04,NNE,23,0.0,0.0,77,0.00,,,0.00,WUHU215HW,2013-01-21 11:02:00,
2013-01-21 05:07:00,14.1,7.9,30.04,NNE,23,0.0,0.0,76,0.00,,,0.00,WUHU215HW,2013-01-21 11:07:00,
2013-01-21 05:09:00,14.1,7.9,30.04,North,0,0.0,0.0,76,0.00,,,0.00,WUHU215HW,2013-01-21 11:09:00,
2013-01-21 05:11:00,13.8,7.6,30.04,North,0,0.0,0.0,76,0.00,,,0.00,WUHU215HW,2013-01-21 11:11:00,
2013-01-21 05:15:00,13.8,7.6,30.04,North,0,0.0,0.0,76,0.00,,,0.00,WUHU215HW,2013-01-21 11:15:00,
2013-01-21 05:16:00,13.8,7.6,30.04,North,0,0.0,0.0,76,0.00,,,0.00,WUHU215HW,2013-01-21 11:16:00,
2013-01-21 05:18:00,13.8,7.6,30.04,NNE,23,0.0,0.0,76,0.00,,,0.00,WUHU215HW,2013-01-21 11:18:00,
2013-01-21 05:21:00,13.8,7.6,30.04,North,0,0.0,0.0,76,0.00,,,0.00,WUHU215HW,2013-01-21 11:21:00,
2013-01-21 05:22:00,13.8,7.6,30.04,NNE,23,0.0,0.0,76,0.00,,,0.00,WUHU215HW,2013-01-21 11:22:00,
2013-01-21 05:26:00,13.8,7.6,30.04,NNE,23,0.0,0.0,76,0.00,,,0.00,WUHU215HW,2013-01-21 11:26:00,
2013-01-21 05:27:00,13.8,7.6,30.04,NNE,23,0.0,0.0,76,0.00,,,0.00,WUHU215HW,2013-01-21 11:27:00,
2013-01-21 05:28:00,13.8,7.6,30.04,NNW,338,0.0,0.0,76,0.00,,,0.00,WUHU215HW,2013-01-21 11:28:00,
2013-01-21 05:29:00,13.8,7.6,30.04,NNW,338,0.0,0.0,76,0.00,,,0.00,WUHU215HW,2013-01-21 11:29:00,
2013-01-21 05:34:00,13.8,7.6,30.04,NNE,23,0.0,0.0,76,0.00,,,0.00,WUHU215HW,2013-01-21 11:34:00,
2013-01-21 05:35:00,13.8,7.6,30.04,WNW,293,0.0,0.0,76,0.00,,,0.00,WUHU215HW,2013-01-21 11:35:00,
2013-01-21 05:36:00,13.8,7.6,30.04,WNW,293,0.0,0.0,76,0.00,,,0.00,WUHU215HW,2013-01-21 11:36:00,
2013-01-21 05:39:00,13.8,7.6,30.04,NNE,23,0.0,0.0,76,0.00,,,0.00,WUHU215HW,2013-01-21 11:39:00,
2013-01-21 05:40:00,13.8,7.6,30.04,NNE,23,0.0,0.0,76,0.00,,,0.00,WUHU215HW,2013-01-21 11:40:00,
2013-01-21 05:41:00,13.8,7.6,30.04,NE,45,0.0,0.0,76,0.00,,,0.00,WUHU215HW,2013-01-21 11:41:00,
2013-01-21 05:42:00,13.8,7.6,30.04,NE,45,0.0,0.0,76,0.00,,,0.00,WUHU215HW,2013-01-21 11:42:00,
2013-01-21 05:46:00,13.8,7.6,30.04,NW,315,0.0,0.0,75,0.00,,,0.00,WUHU215HW,2013-01-21 11:46:00,
2013-01-21 05:47:00,13.8,7.1,30.04,NW,315,0.0,0.0,75,0.00,,,0.00,WUHU215HW,2013-01-21 11:47:00,
2013-01-21 05:48:00,13.6,7.1,30.04,NNW,338,0.0,0.0,75,0.00,,,0.00,WUHU215HW,2013-01-21 11:48:00,
2013-01-21 05:51:00,13.6,7.1,30.04,North,0,0.0,0.0,75,0.00,,,0.00,WUHU215HW,2013-01-21 11:51:00,
2013-01-21 05:52:00,13.6,7.1,30.04,North,0,0.0,0.0,74,0.00,,,0.00,WUHU215HW,2013-01-21 11:52:00,
2013-01-21 05:54:00,13.6,7.1,30.04,West,270,0.0,0.0,74,0.00,,,0.00,WUHU215HW,2013-01-21 11:54:00,
2013-01-21 05:57:00,13.6,6.8,30.04,West,270,0.0,0.0,74,0.00,,,0.00,WUHU215HW,2013-01-21 11:57:00,
2013-01-21 05:58:00,13.6,6.8,30.04,West,270,0.0,0.0,74,0.00,,,0.00,WUHU215HW,2013-01-21 11:58:00,
2013-01-21 06:02:00,13.6,6.8,30.04,West,270,0.0,0.0,74,0.00,,,0.00,WUHU215HW,2013-01-21 12:02:00,
2013-01-21 06:05:00,13.6,6.8,30.04,West,270,0.0,0.0,74,0.00,,,0.00,WUHU215HW,2013-01-21 12:05:00,
2013-01-21 06:06:00,13.6,6.8,30.04,West,270,0.0,0.0,74,0.00,,,0.00,WUHU215HW,2013-01-21 12:06:00,
2013-01-21 06:09:00,13.6,6.8,30.04,West,270,0.0,0.0,74,0.00,,,0.00,WUHU215HW,2013-01-21 12:09:00,
2013-01-21 06:10:00,13.6,6.8,30.04,West,270,0.0,0.0,74,0.00,,,0.00,WUHU215HW,2013-01-21 12:10:00,
2013-01-21 06:14:00,13.6,6.8,30.04,West,270,0.0,0.0,74,0.00,,,0.00,WUHU215HW,2013-01-21 12:14:00,
2013-01-21 06:18:00,13.6,6.8,30.04,West,270,0.0,0.0,74,0.00,,,0.00,WUHU215HW,2013-01-21 12:18:00,
2013-01-21 06:19:00,13.6,6.8,30.04,West,270,0.0,0.0,74,0.00,,,0.00,WUHU215HW,2013-01-21 12:19:00,
2013-01-21 06:23:00,13.6,6.8,30.04,West,270,0.0,0.0,74,0.00,,,0.00,WUHU215HW,2013-01-21 12:23:00,
2013-01-21 06:24:00,13.6,6.8,30.04,West,270,0.0,0.0,74,0.00,,,0.00,WUHU215HW,2013-01-21 12:24:00,
2013-01-21 06:29:00,13.6,6.8,30.04,West,270,0.0,0.0,74,0.00,,,0.00,WUHU215HW,2013-01-21 12:29:00,
2013-01-21 06:31:00,13.6,6.8,30.04,West,270,0.0,0.0,74,0.00,,,0.00,WUHU215HW,2013-01-21 12:31:00,
2013-01-21 06:32:00,13.6,6.8,30.04,West,270,0.0,0.0,74,0.00,,,0.00,WUHU215HW,2013-01-21 12:32:00,
2013-01-21 06:33:00,13.6,6.8,30.04,West,270,0.0,0.0,74,0.00,,,0.00,WUHU215HW,2013-01-21 12:33:00,
2013-01-21 06:35:00,13.6,6.8,30.04,West,270,0.0,0.0,74,0.00,,,0.00,WUHU215HW,2013-01-21 12:35:00,
2013-01-21 06:37:00,13.6,6.8,30.04,West,270,0.0,0.0,74,0.00,,,0.00,WUHU215HW,2013-01-21 12:37:00,
2013-01-21 06:38:00,13.6,6.8,30.04,West,270,0.0,0.0,74,0.00,,,0.00,WUHU215HW,2013-01-21 12:38:00,
2013-01-21 06:42:00,13.6,6.8,30.04,West,270,0.0,0.0,74,0.00,,,0.00,WUHU215HW,2013-01-21 12:42:00,
2013-01-21 06:43:00,13.6,6.8,30.04,West,270,0.0,0.0,74,0.00,,,0.00,WUHU215HW,2013-01-21 12:43:00,
2013-01-21 06:48:00,13.6,6.8,30.04,West,270,0.0,0.0,74,0.00,,,0.00,WUHU215HW,2013-01-21 12:48:00,
2013-01-21 06:49:00,13.6,6.8,30.04,West,270,0.0,0.0,74,0.00,,,0.00,WUHU215HW,2013-01-21 12:49:00,
2013-01-21 06:53:00,13.6,6.8,30.04,West,270,0.0,0.0,74,0.00,,,0.00,WUHU215HW,2013-01-21 12:53:00,
2013-01-21 06:54:00,13.6,6.8,30.04,West,270,0.0,0.0,74,0.00,,,0.00,WUHU215HW,2013-01-21 12:54:00,
2013-01-21 06:59:00,13.6,6.8,30.04,West,270,0.0,0.0,74,0.00,,,0.00,WUHU215HW,2013-01-21 12:59:00,
2013-01-21 07:02:00,13.6,6.8,30.04,West,270,0.0,0.0,74,0.00,,,0.00,WUHU215HW,2013-01-21 13:02:00,
2013-01-21 07:05:00,13.6,6.8,30.04,West,270,0.0,0.0,74,0.00,,,0.00,WUHU215HW,2013-01-21 13:05:00,
2013-01-21 07:07:00,13.1,6.8,30.04,West,270,0.0,0.0,64,0.00,,,0.00,WUHU215HW,2013-01-21 13:07:00,
2013-01-21 07:10:00,13.1,6.8,30.04,West,270,0.0,0.0,64,0.00,,,0.00,WUHU215HW,2013-01-21 13:10:00,
2013-01-21 07:11:00,13.1,6.8,30.04,West,270,0.0,0.0,64,0.00,,,0.00,WUHU215HW,2013-01-21 13:11:00,
2013-01-21 07:15:00,13.1,6.8,30.04,West,270,0.0,0.0,64,0.00,,,0.00,WUHU215HW,2013-01-21 13:15:00,
2013-01-21 07:17:00,13.1,6.8,30.04,West,270,0.0,0.0,64,0.00,,,0.00,WUHU215HW,2013-01-21 13:17:00,
2013-01-21 07:22:00,13.1,6.8,30.04,West,270,0.0,0.0,64,0.00,,,0.00,WUHU215HW,2013-01-21 13:22:00,
2013-01-21 07:23:00,13.1,6.8,30.04,West,270,0.0,0.0,64,0.00,,,0.00,WUHU215HW,2013-01-21 13:23:00,
2013-01-21 07:25:00,13.1,6.8,30.04,West,270,0.0,0.0,64,0.00,,,0.00,WUHU215HW,2013-01-21 13:25:00,
2013-01-21 07:27:00,13.1,6.8,30.04,West,270,0.0,0.0,64,0.00,,,0.00,WUHU215HW,2013-01-21 13:27:00,
2013-01-21 07:31:00,13.1,6.8,30.04,West,270,0.0,0.0,64,0.00,,,0.00,WUHU215HW,2013-01-21 13:31:00,
2013-01-21 07:32:00,13.1,6.8,30.04,West,270,0.0,0.0,64,0.00,,,0.00,WUHU215HW,2013-01-21 13:32:00,
2013-01-21 07:37:00,13.1,6.8,30.04,West,270,0.0,0.0,64,0.00,,,0.00,WUHU215HW,2013-01-21 13:37:00,
2013-01-21 07:38:00,13.1,6.8,30.04,West,270,0.0,0.0,64,0.00,,,0.00,WUHU215HW,2013-01-21 13:38:00,
2013-01-21 07:43:00,13.1,6.8,30.04,West,270,0.0,0.0,64,0.00,,,0.00,WUHU215HW,2013-01-21 13:43:00,
2013-01-21 07:44:00,13.1,6.8,30.04,West,270,0.0,0.0,64,0.00,,,0.00,WUHU215HW,2013-01-21 13:44:00,
2013-01-21 07:46:00,13.1,6.8,30.04,West,270,0.0,0.0,64,0.00,,,0.00,WUHU215HW,2013-01-21 13:46:00,
2013-01-21 07:49:00,13.1,6.8,30.04,West,270,0.0,0.0,64,0.00,,,0.00,WUHU215HW,2013-01-21 13:49:00,
2013-01-21 07:50:00,13.1,6.8,30.04,West,270,0.0,0.0,64,0.00,,,0.00,WUHU215HW,2013-01-21 13:50:00,
2013-01-21 07:54:00,13.1,6.8,30.04,West,270,0.0,0.0,64,0.00,,,0.00,WUHU215HW,2013-01-21 13:54:00,
2013-01-21 07:55:00,13.1,6.8,30.04,West,270,0.0,0.0,64,0.00,,,0.00,WUHU215HW,2013-01-21 13:55:00,
2013-01-21 07:57:00,13.1,6.8,30.04,West,270,0.0,0.0,64,0.00,,,0.00,WUHU215HW,2013-01-21 13:57:00,
2013-01-21 07:59:00,13.1,6.8,30.04,West,270,0.0,0.0,64,0.00,,,0.00,WUHU215HW,2013-01-21 13:59:00,
2013-01-21 08:01:00,13.1,6.8,30.04,West,270,0.0,0.0,64,0.00,,,0.00,WUHU215HW,2013-01-21 14:01:00,
2013-01-21 08:04:00,13.1,6.8,30.04,West,270,0.0,0.0,64,0.00,,,0.00,WUHU215HW,2013-01-21 14:04:00,
2013-01-21 08:06:00,13.1,6.8,30.04,West,270,0.0,0.0,64,0.00,,,0.00,WUHU215HW,2013-01-21 14:06:00,
2013-01-21 08:07:00,13.1,6.8,30.04,West,270,0.0,0.0,64,0.00,,,0.00,WUHU215HW,2013-01-21 14:07:00,
2013-01-21 08:09:00,13.1,6.8,30.04,West,270,0.0,0.0,64,0.00,,,0.00,WUHU215HW,2013-01-21 14:09:00,
2013-01-21 08:14:00,13.1,6.8,30.04,West,270,0.0,0.0,64,0.00,,,0.00,WUHU215HW,2013-01-21 14:14:00,
2013-01-21 08:15:00,13.1,6.8,30.04,West,270,0.0,0.0,64,0.00,,,0.00,WUHU215HW,2013-01-21 14:15:00,
2013-01-21 08:19:00,13.1,6.8,30.04,West,270,0.0,0.0,64,0.00,,,0.00,WUHU215HW,2013-01-21 14:19:00,
2013-01-21 08:20:00,13.1,6.8,30.04,West,270,0.0,0.0,64,0.00,,,0.00,WUHU215HW,2013-01-21 14:20:00,
2013-01-21 08:21:00,13.1,6.8,30.04,West,270,0.0,0.0,64,0.00,,,0.00,WUHU215HW,2013-01-21 14:21:00,
2013-01-21 08:24:00,13.1,6.8,30.04,West,270,0.0,0.0,64,0.00,,,0.00,WUHU215HW,2013-01-21 14:24:00,
2013-01-21 08:26:00,13.1,6.8,30.04,West,270,0.0,0.0,64,0.00,,,0.00,WUHU215HW,2013-01-21 14:26:00,
2013-01-21 08:28:00,13.1,6.8,30.04,West,270,0.0,0.0,64,0.00,,,0.00,WUHU215HW,2013-01-21 14:28:00,
2013-01-21 08:30:00,13.1,6.8,30.04,West,270,0.0,0.0,64,0.00,,,0.00,WUHU215HW,2013-01-21 14:30:00,
2013-01-21 08:31:00,13.1,6.8,30.04,West,270,0.0,0.0,64,0.00,,,0.00,WUHU215HW,2013-01-21 14:31:00,
2013-01-21 08:34:00,13.1,6.8,30.04,West,270,0.0,0.0,64,0.00,,,0.00,WUHU215HW,2013-01-21 14:34:00,
2013-01-21 08:36:00,13.1,6.8,30.04,West,270,0.0,0.0,64,0.00,,,0.00,WUHU215HW,2013-01-21 14:36:00,
2013-01-21 08:37:00,13.1,6.8,30.04,West,270,0.0,0.0,64,0.00,,,0.00,WUHU215HW,2013-01-21 14:37:00,
2013-01-21 08:40:00,13.1,6.8,30.04,West,270,0.0,0.0,64,0.00,,,0.00,WUHU215HW,2013-01-21 14:40:00,
2013-01-21 08:41:00,13.1,6.8,30.04,West,270,0.0,0.0,64,0.00,,,0.00,WUHU215HW,2013-01-21 14:41:00,
2013-01-21 08:42:00,13.1,6.8,30.04,West,270,0.0,0.0,64,0.00,,,0.00,WUHU215HW,2013-01-21 14:42:00,
2013-01-21 08:46:00,13.1,6.8,30.04,West,270,0.0,0.0,64,0.00,,,0.00,WUHU215HW,2013-01-21 14:46:00,
2013-01-21 08:47:00,13.1,6.8,30.04,West,270,0.0,0.0,64,0.00,,,0.00,WUHU215HW,2013-01-21 14:47:00,
2013-01-21 08:48:00,13.1,6.8,30.04,West,270,0.0,0.0,64,0.00,,,0.00,WUHU215HW,2013-01-21 14:48:00,
2013-01-21 08:49:00,13.1,6.8,30.04,West,270,0.0,0.0,64,0.00,,,0.00,WUHU215HW,2013-01-21 14:49:00,
2013-01-21 08:53:00,13.1,6.8,30.04,West,270,0.0,0.0,64,0.00,,,0.00,WUHU215HW,2013-01-21 14:53:00,
2013-01-21 08:55:00,13.1,6.8,30.04,West,270,0.0,0.0,64,0.00,,,0.00,WUHU215HW,2013-01-21 14:55:00,
2013-01-21 08:57:00,13.1,6.8,30.04,West,270,0.0,0.0,64,0.00,,,0.00,WUHU215HW,2013-01-21 14:57:00,
2013-01-21 08:59:00,13.1,6.8,30.04,West,270,0.0,0.0,64,0.00,,,0.00,WUHU215HW,2013-01-21 14:59:00,
2013-01-21 09:02:00,13.0,3.2,30.04,West,270,0.0,0.0,64,0.00,,,0.00,WUHU215HW,2013-01-21 15:02:00,
2013-01-21 09:03:00,13.0,3.1,30.04,West,270,0.0,0.0,64,0.00,,,0.00,WUHU215HW,2013-01-21 15:03:00,
2013-01-21 09:05:00,12.9,3.0,30.04,West,270,0.0,0.0,64,0.00,,,0.00,WUHU215HW,2013-01-21 15:05:00,
2013-01-21 09:07:00,12.8,2.9,30.04,West,270,0.0,0.0,64,0.00,,,0.00,WUHU215HW,2013-01-21 15:07:00,
2013-01-21 09:08:00,12.7,2.9,30.04,West,270,0.0,0.0,64,0.00,,,0.00,WUHU215HW,2013-01-21 15:08:00,
2013-01-21 09:13:00,12.4,2.6,30.04,West,270,0.0,0.0,64,0.00,,,0.00,WUHU215HW,2013-01-21 15:13:00,
2013-01-21 09:14:00,12.4,2.6,30.04,West,270,0.0,0.0,64,0.00,,,0.00,WUHU215HW,2013-01-21 15:14:00,
2013-01-21 09:16:00,12.3,2.5,30.04,West,270,0.0,0.0,64,0.00,,,0.00,WUHU215HW,2013-01-21 15:16:00,
2013-01-21 09:19:00,12.1,2.3,30.04,West,270,0.0,0.0,64,0.00,,,0.00,WUHU215HW,2013-01-21 15:19:00,
2013-01-21 09:21:00,12.0,2.2,30.04,West,270,0.0,0.0,64,0.00,,,0.00,WUHU215HW,2013-01-21 15:21:00,
2013-01-21 09:24:00,11.9,2.1,30.04,West,270,0.0,0.0,64,0.00,,,0.00,WUHU215HW,2013-01-21 15:24:00,
2013-01-21 09:25:00,11.8,2.0,30.04,West,270,0.0,0.0,64,0.00,,,0.00,WUHU215HW,2013-01-21 15:25:00,
2013-01-21 09:26:00,11.8,2.0,30.04,West,270,0.0,0.0,64,0.00,,,0.00,WUHU215HW,2013-01-21 15:26:00,
2013-01-21 09:28:00,11.7,1.9,30.04,West,270,0.0,0.0,64,0.00,,,0.00,WUHU215HW,2013-01-21 15:28:00,
2013-01-21 09:29:00,11.6,1.8,30.04,West,270,0.0,0.0,64,0.00,,,0.00,WUHU215HW,2013-01-21 15:29:00,
2013-01-21 09:31:00,11.5,1.8,30.04,West,270,0.0,0.0,64,0.00,,,0.00,WUHU215HW,2013-01-21 15:31:00,
2013-01-21 09:33:00,11.4,1.7,30.04,West,270,0.0,0.0,64,0.00,,,0.00,WUHU215HW,2013-01-21 15:33:00,
2013-01-21 09:34:00,11.4,1.6,30.04,West,270,0.0,0.0,64,0.00,,,0.00,WUHU215HW,2013-01-21 15:34:00,
2013-01-21 09:37:00,11.2,1.5,30.04,West,270,0.0,0.0,64,0.00,,,0.00,WUHU215HW,2013-01-21 15:37:00,
2013-01-21 09:38:00,11.2,1.4,30.04,West,270,0.0,0.0,64,0.00,,,0.00,WUHU215HW,2013-01-21 15:38:00,
2013-01-21 09:39:00,11.1,1.4,30.04,West,270,0.0,0.0,64,0.00,,,0.00,WUHU215HW,2013-01-21 15:39:00,
2013-01-21 09:44:00,10.9,1.1,30.04,West,270,0.0,0.0,64,0.00,,,0.00,WUHU215HW,2013-01-21 15:44:00,
2013-01-21 09:45:00,10.8,1.1,30.04,West,270,0.0,0.0,64,0.00,,,0.00,WUHU215HW,2013-01-21 15:45:00,
2013-01-21 09:46:00,10.8,1.0,30.04,West,270,0.0,0.0,64,0.00,,,0.00,WUHU215HW,2013-01-21 15:46:00,
2013-01-21 09:50:00,10.6,0.9,30.04,West,270,0.0,0.0,64,0.00,,,0.00,WUHU215HW,2013-01-21 15:50:00,
2013-01-21 09:51:00,10.5,0.8,30.04,West,270,0.0,0.0,64,0.00,,,0.00,WUHU215HW,2013-01-21 15:51:00,
2013-01-21 09:54:00,10.4,0.7,30.04,West,270,0.0,0.0,64,0.00,,,0.00,WUHU215HW,2013-01-21 15:54:00,
2013-01-21 09:56:00,10.3,0.6,30.04,West,270,0.0,0.0,64,0.00,,,0.00,WUHU215HW,2013-01-21 15:56:00,
2013-01-21 09:57:00,10.3,0.5,30.04,West,270,0.0,0.0,64,0.00,,,0.00,WUHU215HW,2013-01-21 15:57:00,
2013-01-21 09:58:00,10.2,0.5,30.04,West,270,0.0,0.0,64,0.00,,,0.00,WUHU215HW,2013-01-21 15:58:00,
2013-01-21 10:03:00,10.0,0.3,30.04,West,270,0.0,0.0,64,0.00,,,0.00,WUHU215HW,2013-01-21 16:03:00,
2013-01-21 10:04:00,9.9,0.2,30.04,West,270,0.0,0.0,64,0.00,,,0.00,WUHU215HW,2013-01-21 16:04:00,
2013-01-21 10:05:00,9.9,0.2,30.04,West,270,0.0,0.0,64,0.00,,,0.00,WUHU215HW,2013-01-21 16:05:00,
2013-01-21 10:09:00,9.7,0.0,30.04,West,270,0.0,0.0,64,0.00,,,0.00,WUHU215HW,2013-01-21 16:09:00,
2013-01-21 10:12:00,9.6,-0.1,30.04,West,270,0.0,0.0,64,0.00,,,0.00,WUHU215HW,2013-01-21 16:12:00,
2013-01-21 10:13:00,9.5,-0.2,30.04,West,270,0.0,0.0,64,0.00,,,0.00,WUHU215HW,2013-01-21 16:13:00,
2013-01-21 10:15:00,9.4,-0.2,30.04,West,270,0.0,0.0,64,0.00,,,0.00,WUHU215HW,2013-01-21 16:15:00,
2013-01-21 10:16:00,9.4,-0.3,30.04,West,270,0.0,0.0,64,0.00,,,0.00,WUHU215HW,2013-01-21 16:16:00,
2013-01-21 10:20:00,9.2,-0.4,30.04,West,270,0.0,0.0,64,0.00,,,0.00,WUHU215HW,2013-01-21 16:20:00,
2013-01-21 10:21:00,9.2,-0.5,30.04,West,270,0.0,0.0,64,0.00,,,0.00,WUHU215HW,2013-01-21 16:21:00,
2013-01-21 10:24:00,9.1,-0.6,30.04,West,270,0.0,0.0,64,0.00,,,0.00,WUHU215HW,2013-01-21 16:24:00,
2013-01-21 10:25:00,9.0,-0.6,30.04,West,270,0.0,0.0,64,0.00,,,0.00,WUHU215HW,2013-01-21 16:25:00,
2013-01-21 10:27:00,8.9,-0.7,30.04,West,270,0.0,0.0,64,0.00,,,0.00,WUHU215HW,2013-01-21 16:27:00,
2013-01-21 10:28:00,8.9,-0.8,30.04,West,270,0.0,0.0,64,0.00,,,0.00,WUHU215HW,2013-01-21 16:28:00,
2013-01-21 10:29:00,8.9,-0.8,30.04,West,270,0.0,0.0,64,0.00,,,0.00,WUHU215HW,2013-01-21 16:29:00,
2013-01-21 10:33:00,8.7,-1.0,30.04,West,270,0.0,0.0,64,0.00,,,0.00,WUHU215HW,2013-01-21 16:33:00,
2013-01-21 10:35:00,8.6,-1.0,30.04,West,270,0.0,0.0,64,0.00,,,0.00,WUHU215HW,2013-01-21 16:35:00,
2013-01-21 10:37:00,8.5,-1.1,30.04,West,270,0.0,0.0,64,0.00,,,0.00,WUHU215HW,2013-01-21 16:37:00,
2013-01-21 10:39:00,8.5,-1.2,30.04,West,270,0.0,0.0,64,0.00,,,0.00,WUHU215HW,2013-01-21 16:39:00,
2013-01-21 10:41:00,8.4,-1.3,30.04,West,270,0.0,0.0,64,0.00,,,0.00,WUHU215HW,2013-01-21 16:41:00,
2013-01-21 10:42:00,8.3,-1.3,30.04,West,270,0.0,0.0,64,0.00,,,0.00,WUHU215HW,2013-01-21 16:42:00,
2013-01-21 10:44:00,8.3,-1.4,30.04,West,270,0.0,0.0,64,0.00,,,0.00,WUHU215HW,2013-01-21 16:44:00,
2013-01-21 10:46:00,8.2,-1.4,30.04,West,270,0.0,0.0,64,0.00,,,0.00,WUHU215HW,2013-01-21 16:46:00,
2013-01-21 10:50:00,8.0,-1.6,30.04,West,270,0.0,0.0,64,0.00,,,0.00,WUHU215HW,2013-01-21 16:50:00,
2013-01-21 10:51:00,8.0,-1.6,30.04,West,270,0.0,0.0,64,0.00,,,0.00,WUHU215HW,2013-01-21 16:51:00,
2013-01-21 10:55:00,7.9,-1.7,30.04,West,270,0.0,0.0,64,0.00,,,0.00,WUHU215HW,2013-01-21 16:55:00,
2013-01-21 10:58:00,7.8,-1.8,30.04,West,270,0.0,0.0,64,0.00,,,0.00,WUHU215HW,2013-01-21 16:58:00,
2013-01-21 11:00:00,7.7,-1.9,30.04,West,270,0.0,0.0,64,0.00,,,0.00,WUHU215HW,2013-01-21 17:00:00,
2013-01-21 11:01:00,7.7,-1.9,30.04,West,270,0.0,0.0,64,0.00,,,0.00,WUHU215HW,2013-01-21 17:01:00,
2013-01-21 11:03:00,7.6,-2.0,30.04,West,270,0.0,0.0,64,0.00,,,0.00,WUHU215HW,2013-01-21 17:03:00,
2013-01-21 11:06:00,7.5,-2.1,30.04,West,270,0.0,0.0,64,0.00,,,0.00,WUHU215HW,2013-01-21 17:06:00,
2013-01-21 11:08:00,7.5,-2.1,30.04,West,270,0.0,0.0,64,0.00,,,0.00,WUHU215HW,2013-01-21 17:08:00,
2013-01-21 11:12:00,7.3,-2.2,30.04,West,270,0.0,0.0,64,0.00,,,0.00,WUHU215HW,2013-01-21 17:12:00,
2013-01-21 11:14:00,7.3,-2.3,30.04,West,270,0.0,0.0,64,0.00,,,0.00,WUHU215HW,2013-01-21 17:14:00,
2013-01-21 11:17:00,7.2,-2.4,30.04,West,270,0.0,0.0,64,0.00,,,0.00,WUHU215HW,2013-01-21 17:17:00,
2013-01-21 11:19:00,7.1,-2.4,30.04,West,270,0.0,0.0,64,0.00,,,0.00,WUHU215HW,2013-01-21 17:19:00,
2013-01-21 11:20:00,7.1,-2.5,30.04,West,270,0.0,0.0,64,0.00,,,0.00,WUHU215HW,2013-01-21 17:20:00,
2013-01-21 11:23:00,7.0,-2.5,30.04,West,270,0.0,0.0,64,0.00,,,0.00,WUHU215HW,2013-01-21 17:23:00,
2013-01-21 11:27:00,6.9,-2.6,30.04,West,270,0.0,0.0,64,0.00,,,0.00,WUHU215HW,2013-01-21 17:27:00,
2013-01-21 11:28:00,6.9,-2.7,30.04,West,270,0.0,0.0,64,0.00,,,0.00,WUHU215HW,2013-01-21 17:28:00,
2013-01-21 11:29:00,6.9,-2.7,30.04,West,270,0.0,0.0,64,0.00,,,0.00,WUHU215HW,2013-01-21 17:29:00,
2013-01-21 11:33:00,6.8,-2.8,30.04,West,270,0.0,0.0,64,0.00,,,0.00,WUHU215HW,2013-01-21 17:33:00,
2013-01-21 11:35:00,6.8,-2.8,30.04,West,270,0.0,0.0,64,0.00,,,0.00,WUHU215HW,2013-01-21 17:35:00,
2013-01-21 11:38:00,6.7,-2.9,30.04,West,270,0.0,0.0,64,0.00,,,0.00,WUHU215HW,2013-01-21 17:38:00,
2013-01-21 11:40:00,6.6,-2.9,30.04,West,270,0.0,0.0,64,0.00,,,0.00,WUHU215HW,2013-01-21 17:40:00,
2013-01-21 11:41:00,6.6,-2.9,30.04,West,270,0.0,0.0,64,0.00,,,0.00,WUHU215HW,2013-01-21 17:41:00,
2013-01-21 11:45:00,6.6,-3.0,30.04,West,270,0.0,0.0,64,0.00,,,0.00,WUHU215HW,2013-01-21 17:45:00,
2013-01-21 11:46:00,6.5,-3.0,30.04,West,270,0.0,0.0,64,0.00,,,0.00,WUHU215HW,2013-01-21 17:46:00,
2013-01-21 11:48:00,6.5,-3.0,30.04,West,270,0.0,0.0,64,0.00,,,0.00,WUHU215HW,2013-01-21 17:48:00,
2013-01-21 11:53:00,6.4,-3.1,30.04,West,270,0.0,0.0,64,0.00,,,0.00,WUHU215HW,2013-01-21 17:53:00,
2013-01-21 11:54:00,6.4,-3.1,30.04,West,270,0.0,0.0,64,0.00,,,0.00,WUHU215HW,2013-01-21 17:54:00,
2013-01-21 11:56:00,6.4,-3.2,30.04,West,270,0.0,0.0,64,0.00,,,0.00,WUHU215HW,2013-01-21 17:56:00,
2013-01-21 11:59:00,6.3,-3.2,30.04,West,270,0.0,0.0,64,0.00,,,0.00,WUHU215HW,2013-01-21 17:59:00,
2013-01-21 12:01:00,6.3,-3.2,30.04,West,270,0.0,0.0,64,0.00,,,0.00,WUHU215HW,2013-01-21 18:01:00,
2013-01-21 12:04:00,6.3,-3.3,30.04,West,270,0.0,0.0,64,0.00,,,0.00,WUHU215HW,2013-01-21 18:04:00,
2013-01-21 12:06:00,6.2,-3.3,30.04,West,270,0.0,0.0,64,0.00,,,0.00,WUHU215HW,2013-01-21 18:06:00,
2013-01-21 12:11:00,6.2,-3.3,30.04,West,270,0.0,0.0,64,0.00,,,0.00,WUHU215HW,2013-01-21 18:11:00,
2013-01-21 12:12:00,6.2,-3.3,30.04,West,270,0.0,0.0,64,0.00,,,0.00,WUHU215HW,2013-01-21 18:12:00,
2013-01-21 12:17:00,6.2,-3.4,30.04,West,270,0.0,0.0,64,0.00,,,0.00,WUHU215HW,2013-01-21 18:17:00,
2013-01-21 12:18:00,6.1,-3.4,30.04,West,270,0.0,0.0,64,0.00,,,0.00,WUHU215HW,2013-01-21 18:18:00,
2013-01-21 12:19:00,6.1,-3.4,30.04,West,270,0.0,0.0,64,0.00,,,0.00,WUHU215HW,2013-01-21 18:19:00,
2013-01-21 12:23:00,6.1,-3.4,30.04,West,270,0.0,0.0,64,0.00,,,0.00,WUHU215HW,2013-01-21 18:23:00,
2013-01-21 12:24:00,6.1,-3.4,30.04,West,270,0.0,0.0,64,0.00,,,0.00,WUHU215HW,2013-01-21 18:24:00,
2013-01-21 12:29:00,6.1,-3.4,30.04,West,270,0.0,0.0,64,0.00,,,0.00,WUHU215HW,2013-01-21 18:29:00,
2013-01-21 12:31:00,6.1,-3.4,30.04,West,270,0.0,0.0,64,0.00,,,0.00,WUHU215HW,2013-01-21 18:31:00,
2013-01-21 12:36:00,6.1,-3.4,30.04,West,270,0.0,0.0,64,0.00,,,0.00,WUHU215HW,2013-01-21 18:36:00,
2013-01-21 12:39:00,6.1,-3.4,30.04,West,270,0.0,0.0,64,0.00,,,0.00,WUHU215HW,2013-01-21 18:39:00,
2013-01-21 12:42:00,6.1,-3.4,30.04,West,270,0.0,0.0,64,0.00,,,0.00,WUHU215HW,2013-01-21 18:42:00,
2013-01-21 12:44:00,6.1,-3.4,30.04,West,270,0.0,0.0,64,0.00,,,0.00,WUHU215HW,2013-01-21 18:44:00,
2013-01-21 12:49:00,6.1,-3.4,30.04,West,270,0.0,0.0,64,0.00,,,0.00,WUHU215HW,2013-01-21 18:49:00,
2013-01-21 12:51:00,6.2,-3.4,30.04,West,270,0.0,0.0,64,0.00,,,0.00,WUHU215HW,2013-01-21 18:51:00,
2013-01-21 12:55:00,6.2,-3.3,30.04,West,270,0.0,0.0,64,0.00,,,0.00,WUHU215HW,2013-01-21 18:55:00,
2013-01-21 12:57:00,6.2,-3.3,30.04,West,270,0.0,0.0,64,0.00,,,0.00,WUHU215HW,2013-01-21 18:57:00,
2013-01-21 12:58:00,6.2,-3.3,30.04,West,270,0.0,0.0,64,0.00,,,0.00,WUHU215HW,2013-01-21 18:58:00,
2013-01-21 13:02:00,6.2,-3.3,30.04,West,270,0.0,0.0,64,0.00,,,0.00,WUHU215HW,2013-01-21 19:02:00,
2013-01-21 13:04:00,6.3,-3.3,30.04,West,270,0.0,0.0,64,0.00,,,0.00,WUHU215HW,2013-01-21 19:04:00,
2013-01-21 13:07:00,6.3,-3.2,30.04,West,270,0.0,0.0,64,0.00,,,0.00,WUHU215HW,2013-01-21 19:07:00,
2013-01-21 13:10:00,6.3,-3.2,30.04,West,270,0.0,0.0,64,0.00,,,0.00,WUHU215HW,2013-01-21 19:10:00,
2013-01-21 13:12:00,6.4,-3.2,30.04,West,270,0.0,0.0,64,0.00,,,0.00,WUHU215HW,2013-01-21 19:12:00,
2013-01-21 13:15:00,6.4,-3.1,30.04,West,270,0.0,0.0,64,0.00,,,0.00,WUHU215HW,2013-01-21 19:15:00,
2013-01-21 13:20:00,6.5,-3.1,30.04,West,270,0.0,0.0,64,0.00,,,0.00,WUHU215HW,2013-01-21 19:20:00,
2013-01-21 13:21:00,6.5,-3.0,30.04,West,270,0.0,0.0,64,0.00,,,0.00,WUHU215HW,2013-01-21 19:21:00,
2013-01-21 13:25:00,6.6,-3.0,30.04,West,270,0.0,0.0,64,0.00,,,0.00,WUHU215HW,2013-01-21 19:25:00,
2013-01-21 13:30:00,6.7,-2.9,30.04,West,270,0.0,0.0,64,0.00,,,0.00,WUHU215HW,2013-01-21 19:30:00,
2013-01-21 13:31:00,6.7,-2.9,30.04,West,270,0.0,0.0,64,0.00,,,0.00,WUHU215HW,2013-01-21 19:31:00,
2013-01-21 13:32:00,6.7,-2.8,30.04,West,270,0.0,0.0,64,0.00,,,0.00,WUHU215HW,2013-01-21 19:32:00,
2013-01-21 13:37:00,6.8,-2.7,30.04,West,270,0.0,0.0,64,0.00,,,0.00,WUHU215HW,2013-01-21 19:37:00,
2013-01-21 13:38:00,6.9,-2.7,30.04,West,270,0.0,0.0,64,0.00,,,0.00,WUHU215HW,2013-01-21 19:38:00,
2013-01-21 13:41:00,6.9,-2.6,30.04,West,270,0.0,0.0,64,0.00,,,0.00,WUHU215HW,2013-01-21 19:41:00,
2013-01-21 13:44:00,7.0,-2.6,30.04,West,270,0.0,0.0,64,0.00,,,0.00,WUHU215HW,2013-01-21 19:44:00,
2013-01-21 13:45:00,7.0,-2.5,30.04,West,270,0.0,0.0,64,0.00,,,0.00,WUHU215HW,2013-01-21 19:45:00,
2013-01-21 13:48:00,7.1,-2.5,30.04,West,270,0.0,0.0,64,0.00,,,0.00,WUHU215HW,2013-01-21 19:48:00,
2013-01-21 13:49:00,7.1,-2.4,30.04,West,270,0.0,0.0,64,0.00,,,0.00,WUHU215HW,2013-01-21 19:49:00,
2013-01-21 13:50:00,7.2,-2.4,30.04,West,270,0.0,0.0,64,0.00,,,0.00,WUHU215HW,2013-01-21 19:50:00,
2013-01-21 13:52:00,7.2,-2.4,30.04,West,270,0.0,0.0,64,0.00,,,0.00,WUHU215HW,2013-01-21 19:52:00,
2013-01-21 13:54:00,7.3,-2.3,30.04,West,270,0.0,0.0,64,0.00,,,0.00,WUHU215HW,2013-01-21 19:54:00,
2013-01-21 13:55:00,7.3,-2.3,30.04,West,270,0.0,0.0,64,0.00,,,0.00,WUHU215HW,2013-01-21 19:55:00,
2013-01-21 13:59:00,7.4,-2.2,30.04,West,270,0.0,0.0,64,0.00,,,0.00,WUHU215HW,2013-01-21 19:59:00,
2013-01-21 14:00:00,7.4,-2.1,30.04,West,270,0.0,0.0,64,0.00,,,0.00,WUHU215HW,2013-01-21 20:00:00,
2013-01-21 14:01:00,7.5,-2.1,30.04,West,270,0.0,0.0,64,0.00,,,0.00,WUHU215HW,2013-01-21 20:01:00,
2013-01-21 14:03:00,7.5,-2.1,30.04,West,270,0.0,0.0,64,0.00,,,0.00,WUHU215HW,2013-01-21 20:03:00,
2013-01-21 14:08:00,7.7,-1.9,30.04,West,270,0.0,0.0,64,0.00,,,0.00,WUHU215HW,2013-01-21 20:08:00,
2013-01-21 14:09:00,7.7,-1.9,30.04,West,270,0.0,0.0,64,0.00,,,0.00,WUHU215HW,2013-01-21 20:09:00,
2013-01-21 14:10:00,7.8,-1.8,30.04,West,270,0.0,0.0,64,0.00,,,0.00,WUHU215HW,2013-01-21 20:10:00,
2013-01-21 14:14:00,7.9,-1.7,30.04,West,270,0.0,0.0,64,0.00,,,0.00,WUHU215HW,2013-01-21 20:14:00,
2013-01-21 14:17:00,8.0,-1.6,30.04,West,270,0.0,0.0,64,0.00,,,0.00,WUHU215HW,2013-01-21 20:17:00,
2013-01-21 14:18:00,8.0,-1.6,30.04,West,270,0.0,0.0,64,0.00,,,0.00,WUHU215HW,2013-01-21 20:18:00,
2013-01-21 14:22:00,8.2,-1.4,30.04,West,270,0.0,0.0,64,0.00,,,0.00,WUHU215HW,2013-01-21 20:22:00,
2013-01-21 14:23:00,8.2,-1.4,30.04,West,270,0.0,0.0,64,0.00,,,0.00,WUHU215HW,2013-01-21 20:23:00,
2013-01-21 14:27:00,10.7,1.3,30.04,SSW,203,0.0,0.0,65,0.00,,,0.00,WUHU215HW,2013-01-21 20:27:00,
2013-01-21 14:28:00,10.7,1.3,30.04,SSW,203,0.0,0.0,65,0.00,,,0.00,WUHU215HW,2013-01-21 20:28:00,
2013-01-21 14:32:00,10.9,1.4,30.04,SSW,203,0.0,0.0,65,0.00,,,0.00,WUHU215HW,2013-01-21 20:32:00,
2013-01-21 14:33:00,10.9,1.5,30.04,SSW,203,0.0,0.0,65,0.00,,,0.00,WUHU215HW,2013-01-21 20:33:00,
2013-01-21 14:38:00,11.1,1.7,30.04,SSW,203,0.0,0.0,65,0.00,,,0.00,WUHU215HW,2013-01-21 20:38:00,
2013-01-21 14:40:00,11.2,1.8,30.04,SSW,203,0.0,0.0,65,0.00,,,0.00,WUHU215HW,2013-01-21 20:40:00,
2013-01-21 14:41:00,11.2,1.8,30.04,SSW,203,0.0,0.0,65,0.00,,,0.00,WUHU215HW,2013-01-21 20:41:00,
2013-01-21 14:43:00,11.3,1.9,30.04,SSW,203,0.0,0.0,65,0.00,,,0.00,WUHU215HW,2013-01-21 20:43:00,
2013-01-21 14:46:00,11.4,2.0,30.04,SSW,203,0.0,0.0,65,0.00,,,0.00,WUHU215HW,2013-01-21 20:46:00,
2013-01-21 14:49:00,11.6,2.1,30.04,SSW,203,0.0,0.0,65,0.00,,,0.00,WUHU215HW,2013-01-21 20:49:00,
2013-01-21 14:51:00,11.6,2.2,30.04,SSW,203,0.0,0.0,65,0.00,,,0.00,WUHU215HW,2013-01-21 20:51:00,
2013-01-21 14:52:00,11.7,2.2,30.04,SSW,203,0.0,0.0,65,0.00,,,0.00,WUHU215HW,2013-01-21 20:52:00,
2013-01-21 14:55:00,11.8,2.4,30.04,SSW,203,0.0,0.0,65,0.00,,,0.00,WUHU215HW,2013-01-21 20:55:00,
2013-01-21 14:58:00,12.0,2.5,30.04,SSW,203,0.0,0.0,65,0.00,,,0.00,WUHU215HW,2013-01-21 20:58:00,
2013-01-21 15:00:00,12.0,2.6,30.04,SSW,203,0.0,0.0,65,0.00,,,0.00,WUHU215HW,2013-01-21 21:00:00,
2013-01-21 15:05:00,12.3,2.8,30.04,SSW,203,0.0,0.0,65,0.00,,,0.00,WUHU215HW,2013-01-21 21:05:00,
2013-01-21 15:06:00,12.3,2.8,30.04,SSW,203,0.0,0.0,65,0.00,,,0.00,WUHU215HW,2013-01-21 21:06:00,
2013-01-21 15:08:00,12.4,2.9,30.04,SSW,203,0.0,0.0,65,0.00,,,0.00,WUHU215HW,2013-01-21 21:08:00,
2013-01-21 15:12:00,12.6,3.1,30.04,SSW,203,0.0,0.0,65,0.00,,,0.00,WUHU215HW,2013-01-21 21:12:00,
2013-01-21 15:13:00,12.6,3.1,30.04,SSW,203,0.0,0.0,65,0.00,,,0.00,WUHU215HW,2013-01-21 21:13:00,
2013-01-21 15:14:00,12.7,3.2,30.04,SSW,203,0.0,0.0,65,0.00,,,0.00,WUHU215HW,2013-01-21 21:14:00,
2013-01-21 15:17:00,12.8,3.3,30.04,SSW,203,0.0,0.0,65,0.00,,,0.00,WUHU215HW,2013-01-21 21:17:00,
2013-01-21 15:19:00,12.9,3.4,30.04,SSW,203,0.0,0.0,65,0.00,,,0.00,WUHU215HW,2013-01-21 21:19:00,
2013-01-21 15:24:00,13.2,3.7,30.04,SSW,203,0.0,0.0,65,0.00,,,0.00,WUHU215HW,2013-01-21 21:24:00,
2013-01-21 15:29:00,13.4,3.9,30.04,SSW,203,0.0,0.0,65,0.00,,,0.00,WUHU215HW,2013-01-21 21:29:00,
2013-01-21 15:32:00,13.6,4.0,30.04,SSW,203,0.0,0.0,65,0.00,,,0.00,WUHU215HW,2013-01-21 21:32:00,
2013-01-21 15:34:00,13.7,4.1,30.04,SSW,203,0.0,0.0,65,0.00,,,0.00,WUHU215HW,2013-01-21 21:34:00,
2013-01-21 15:37:00,13.8,4.3,30.04,SSW,203,0.0,0.0,65,0.00,,,0.00,WUHU215HW,2013-01-21 21:37:00,
2013-01-21 15:39:00,13.9,4.4,30.04,SSW,203,0.0,0.0,65,0.00,,,0.00,WUHU215HW,2013-01-21 21:39:00,
2013-01-21 15:40:00,14.0,4.4,30.04,SSW,203,0.0,0.0,65,0.00,,,0.00,WUHU215HW,2013-01-21 21:40:00,
2013-01-21 15:44:00,14.2,4.6,30.04,SSW,203,0.0,0.0,65,0.00,,,0.00,WUHU215HW,2013-01-21 21:44:00,
2013-01-21 15:46:00,14.3,4.7,30.04,SSW,203,0.0,0.0,65,0.00,,,0.00,WUHU215HW,2013-01-21 21:46:00,
2013-01-21 15:49:00,14.4,4.8,30.04,SSW,203,0.0,0.0,65,0.00,,,0.00,WUHU215HW,2013-01-21 21:49:00,
2013-01-21 15:50:00,14.5,4.9,30.04,SSW,203,0.0,0.0,65,0.00,,,0.00,WUHU215HW,2013-01-21 21:50:00,
2013-01-21 15:51:00,14.5,4.9,30.04,SSW,203,0.0,0.0,65,0.00,,,0.00,WUHU215HW,2013-01-21 21:51:00,
2013-01-21 15:54:00,16.1,6.4,30.04,SSW,203,0.0,0.0,65,0.00,,,0.00,WUHU215HW,2013-01-21 21:54:00,
2013-01-21 15:55:00,16.1,6.5,30.04,SSW,203,0.0,0.0,65,0.00,,,0.00,WUHU215HW,2013-01-21 21:55:00,
2013-01-21 15:59:00,16.3,6.7,30.04,SSW,203,0.0,0.0,65,0.00,,,0.00,WUHU215HW,2013-01-21 21:59:00,
2013-01-21 16:01:00,16.4,6.8,30.04,SSW,203,0.0,0.0,65,0.00,,,0.00,WUHU215HW,2013-01-21 22:01:00,
2013-01-21 16:02:00,16.5,6.8,30.04,SSW,203,0.0,0.0,65,0.00,,,0.00,WUHU215HW,2013-01-21 22:02:00,
2013-01-21 16:06:00,16.7,7.0,30.04,SSW,203,0.0,0.0,65,0.00,,,0.00,WUHU215HW,2013-01-21 22:06:00,
2013-01-21 16:07:00,16.7,7.1,30.04,SSW,203,0.0,0.0,65,0.00,,,0.00,WUHU215HW,2013-01-21 22:07:00,
2013-01-21 16:10:00,16.7,7.0,30.04,SSW,203,0.0,0.0,65,0.00,,,0.00,WUHU215HW,2013-01-21 22:10:00,
2013-01-21 16:12:00,16.6,6.9,30.04,SSW,203,0.0,0.0,65,0.00,,,0.00,WUHU215HW,2013-01-21 22:12:00,
2013-01-21 16:13:00,16.5,6.9,30.04,SSW,203,0.0,0.0,65,0.00,,,0.00,WUHU215HW,2013-01-21 22:13:00,
2013-01-21 16:17:00,16.3,6.7,30.04,SSW,203,0.0,0.0,65,0.00,,,0.00,WUHU215HW,2013-01-21 22:17:00,
2013-01-21 16:19:00,16.2,6.6,30.04,SSW,203,0.0,0.0,65,0.00,,,0.00,WUHU215HW,2013-01-21 22:19:00,
2013-01-21 16:22:00,16.1,6.4,30.04,SSW,203,0.0,0.0,65,0.00,,,0.00,WUHU215HW,2013-01-21 22:22:00,
2013-01-21 16:23:00,16.0,6.4,30.04,SSW,203,0.0,0.0,65,0.00,,,0.00,WUHU215HW,2013-01-21 22:23:00,
2013-01-21 16:28:00,15.8,6.1,30.04,SSW,203,0.0,0.0,65,0.00,,,0.00,WUHU215HW,2013-01-21 22:28:00,
2013-01-21 16:29:00,15.7,6.1,30.04,SSW,203,0.0,0.0,65,0.00,,,0.00,WUHU215HW,2013-01-21 22:29:00,
2013-01-21 16:31:00,15.6,6.0,30.04,SSW,203,0.0,0.0,65,0.00,,,0.00,WUHU215HW,2013-01-21 22:31:00,
2013-01-21 16:34:00,15.5,5.9,30.04,SSW,203,0.0,0.0,65,0.00,,,0.00,WUHU215HW,2013-01-21 22:34:00,
2013-01-21 16:35:00,15.4,5.8,30.04,SSW,203,0.0,0.0,65,0.00,,,0.00,WUHU215HW,2013-01-21 22:35:00,
2013-01-21 16:37:00,15.4,5.7,30.04,SSW,203,0.0,0.0,65,0.00,,,0.00,WUHU215HW,2013-01-21 22:37:00,
2013-01-21 16:39:00,15.3,5.7,30.04,SSW,203,0.0,0.0,65,0.00,,,0.00,WUHU215HW,2013-01-21 22:39:00,
2013-01-21 16:42:00,15.1,5.5,30.04,SSW,203,0.0,0.0,65,0.00,,,0.00,WUHU215HW,2013-01-21 22:42:00,
2013-01-21 16:43:00,15.1,5.5,30.04,SSW,203,0.0,0.0,65,0.00,,,0.00,WUHU215HW,2013-01-21 22:43:00,
2013-01-21 16:48:00,13.7,4.1,30.04,SSW,203,0.0,0.0,65,0.00,,,0.00,WUHU215HW,2013-01-21 22:48:00,
2013-01-21 16:49:00,13.6,4.1,30.04,SSW,203,0.0,0.0,65,0.00,,,0.00,WUHU215HW,2013-01-21 22:49:00,
2013-01-21 16:52:00,13.5,4.0,30.04,SSW,203,0.0,0.0,65,0.00,,,0.00,WUHU215HW,2013-01-21 22:52:00,
2013-01-21 16:53:00,13.5,4.0,30.04,SSW,203,0.0,0.0,65,0.00,,,0.00,WUHU215HW,2013-01-21 22:53:00,
2013-01-21 16:54:00,13.4,3.9,30.04,SSW,203,0.0,0.0,65,0.00,,,0.00,WUHU215HW,2013-01-21 22:54:00,
2013-01-21 16:55:00,13.4,3.9,30.04,SSW,203,0.0,0.0,65,0.00,,,0.00,WUHU215HW,2013-01-21 22:55:00,
2013-01-21 17:00:00,12.5,3.1,30.04,SSW,203,0.0,0.0,65,0.00,,,0.00,WUHU215HW,2013-01-21 23:00:00,
2013-01-21 17:01:00,12.5,3.0,30.04,SSW,203,0.0,0.0,65,0.00,,,0.00,WUHU215HW,2013-01-21 23:01:00,
2013-01-21 17:04:00,12.4,2.9,30.04,North,0,0.0,0.0,65,0.00,,,0.00,WUHU215HW,2013-01-21 23:04:00,
2013-01-21 17:05:00,12.2,2.7,30.04,North,0,0.0,0.0,65,0.00,,,0.00,WUHU215HW,2013-01-21 23:05:00,
2013-01-21 17:09:00,12.1,2.6,30.04,North,0,0.0,0.0,65,0.00,,,0.00,WUHU215HW,2013-01-21 23:09:00,
2013-01-21 17:10:00,12.1,2.6,30.04,North,0,0.0,0.0,65,0.00,,,0.00,WUHU215HW,2013-01-21 23:10:00,
2013-01-21 17:11:00,12.0,2.6,30.04,North,0,0.0,0.0,65,0.00,,,0.00,WUHU215HW,2013-01-21 23:11:00,
2013-01-21 17:15:00,11.7,2.3,30.04,North,0,0.0,0.0,65,0.00,,,0.00,WUHU215HW,2013-01-21 23:15:00,
2013-01-21 17:16:00,11.7,2.3,30.04,North,0,0.0,0.0,65,0.00,,,0.00,WUHU215HW,2013-01-21 23:16:00,
2013-01-21 17:18:00,11.7,2.2,30.04,North,0,0.0,0.0,65,0.00,,,0.00,WUHU215HW,2013-01-21 23:18:00,
2013-01-21 17:21:00,11.6,2.5,30.04,North,0,0.0,0.0,66,0.00,,,0.00,WUHU215HW,2013-01-21 23:21:00,
2013-01-21 17:22:00,11.6,2.5,30.04,North,0,0.0,0.0,66,0.00,,,0.00,WUHU215HW,2013-01-21 23:22:00,
2013-01-21 17:23:00,11.6,2.5,30.04,North,0,0.0,0.0,66,0.00,,,0.00,WUHU215HW,2013-01-21 23:23:00,
2013-01-21 17:25:00,11.6,2.5,30.04,North,0,0.0,0.0,66,0.00,,,0.00,WUHU215HW,2013-01-21 23:25:00,
2013-01-21 17:27:00,11.6,2.4,30.04,North,0,0.0,0.0,66,0.00,,,0.00,WUHU215HW,2013-01-21 23:27:00,
2013-01-21 17:28:00,11.5,2.4,30.04,North,0,0.0,0.0,66,0.00,,,0.00,WUHU215HW,2013-01-21 23:28:00,
2013-01-21 17:30:00,11.5,2.4,30.04,North,0,0.0,0.0,66,0.00,,,0.00,WUHU215HW,2013-01-21 23:30:00,
2013-01-21 17:35:00,11.5,2.4,30.04,North,0,0.0,0.0,66,0.00,,,0.00,WUHU215HW,2013-01-21 23:35:00,
2013-01-21 17:36:00,11.5,2.4,30.04,North,0,0.0,0.0,66,0.00,,,0.00,WUHU215HW,2013-01-21 23:36:00,
2013-01-21 17:38:00,11.5,2.4,30.04,North,0,0.0,0.0,66,0.00,,,0.00,WUHU215HW,2013-01-21 23:38:00,
2013-01-21 17:40:00,11.5,2.4,30.04,North,0,0.0,0.0,66,0.00,,,0.00,WUHU215HW,2013-01-21 23:40:00,
2013-01-21 17:42:00,11.5,2.4,30.04,North,0,0.0,0.0,66,0.00,,,0.00,WUHU215HW,2013-01-21 23:42:00,
2013-01-21 17:43:00,11.5,2.4,30.04,North,0,0.0,0.0,66,0.00,,,0.00,WUHU215HW,2013-01-21 23:43:00,
2013-01-21 17:47:00,11.5,2.4,30.04,North,0,0.0,0.0,66,0.00,,,0.00,WUHU215HW,2013-01-21 23:47:00,
2013-01-21 17:48:00,11.5,2.4,30.04,North,0,0.0,0.0,66,0.00,,,0.00,WUHU215HW,2013-01-21 23:48:00,
2013-01-21 17:50:00,11.6,2.4,30.04,North,0,0.0,0.0,66,0.00,,,0.00,WUHU215HW,2013-01-21 23:50:00,
2013-01-21 17:53:00,11.6,2.5,30.04,North,0,0.0,0.0,66,0.00,,,0.00,WUHU215HW,2013-01-21 23:53:00,
2013-01-21 17:58:00,11.5,2.4,30.04,North,0,0.0,0.0,66,0.00,,,0.00,WUHU215HW,2013-01-21 23:58:00,
2013-01-21 17:59:00,11.5,2.4,30.04,North,0,0.0,0.0,66,0.00,,,0.00,WUHU215HW,2013-01-21 23:59:00,
2013-01-21 18:03:00,11.6,2.5,30.04,North,0,0.0,0.0,66,0.00,,,0.00,WUHU215HW,2013-01-22 00:03:00,
2013-01-21 18:04:00,11.6,2.5,30.04,North,0,0.0,0.0,66,0.00,,,0.00,WUHU215HW,2013-01-22 00:04:00,
2013-01-21 18:06:00,11.6,2.5,30.04,North,0,0.0,0.0,66,0.00,,,0.00,WUHU215HW,2013-01-22 00:06:00,
2013-01-21 18:08:00,11.7,2.6,30.04,North,0,0.0,0.0,66,0.00,,,0.00,WUHU215HW,2013-01-22 00:08:00,
2013-01-21 18:09:00,11.7,2.9,30.04,North,0,0.0,0.0,67,0.00,,,0.00,WUHU215HW,2013-01-22 00:09:00,
2013-01-21 18:11:00,11.8,3.0,30.04,West,270,0.0,0.0,67,0.00,,,0.00,WUHU215HW,2013-01-22 00:11:00,
2013-01-21 18:13:00,11.8,3.0,30.04,West,270,0.0,0.0,67,0.00,,,0.00,WUHU215HW,2013-01-22 00:13:00,
2013-01-21 18:14:00,11.9,3.1,30.04,West,270,0.0,0.0,67,0.00,,,0.00,WUHU215HW,2013-01-22 00:14:00,
2013-01-21 18:18:00,12.0,3.2,30.04,West,270,0.0,0.0,67,0.00,,,0.00,WUHU215HW,2013-01-22 00:18:00,
2013-01-21 18:19:00,12.0,3.2,30.04,West,270,0.0,0.0,67,0.00,,,0.00,WUHU215HW,2013-01-22 00:19:00,
2013-01-21 18:22:00,12.1,3.3,30.04,West,270,0.0,0.0,67,0.00,,,0.00,WUHU215HW,2013-01-22 00:22:00,
2013-01-21 18:24:00,12.2,3.4,30.04,West,270,0.0,0.0,67,0.00,,,0.00,WUHU215HW,2013-01-22 00:24:00,
2013-01-21 18:25:00,12.2,3.4,30.04,West,270,0.0,0.0,67,0.00,,,0.00,WUHU215HW,2013-01-22 00:25:00,
2013-01-21 18:27:00,12.3,3.5,30.04,West,270,0.0,0.0,67,0.00,,,0.00,WUHU215HW,2013-01-22 00:27:00,
2013-01-21 18:28:00,12.4,3.5,30.04,West,270,0.0,0.0,67,0.00,,,0.00,WUHU215HW,2013-01-22 00:28:00,
2013-01-21 18:33:00,12.6,3.7,30.04,West,270,0.0,0.0,67,0.00,,,0.00,WUHU215HW,2013-01-22 00:33:00,
2013-01-21 18:35:00,12.7,3.8,30.04,West,270,0.0,0.0,67,0.00,,,0.00,WUHU215HW,2013-01-22 00:35:00,
2013-01-21 18:36:00,12.7,3.9,30.04,West,270,0.0,0.0,67,0.00,,,0.00,WUHU215HW,2013-01-22 00:36:00,
2013-01-21 18:38:00,12.8,3.9,30.04,West,270,0.0,0.0,67,0.00,,,0.00,WUHU215HW,2013-01-22 00:38:00,
2013-01-21 18:40:00,12.9,4.0,30.04,West,270,0.0,0.0,67,0.00,,,0.00,WUHU215HW,2013-01-22 00:40:00,
2013-01-21 18:41:00,12.9,4.1,30.04,West,270,0.0,0.0,67,0.00,,,0.00,WUHU215HW,2013-01-22 00:41:00,
2013-01-21 18:44:00,13.1,4.2,30.04,West,270,0.0,0.0,67,0.00,,,0.00,WUHU215HW,2013-01-22 00:44:00,
2013-01-21 18:45:00,13.1,4.3,30.04,West,270,0.0,0.0,67,0.00,,,0.00,WUHU215HW,2013-01-22 00:45:00,
2013-01-21 18:46:00,13.2,4.3,30.04,West,270,0.0,0.0,67,0.00,,,0.00,WUHU215HW,2013-01-22 00:46:00,
2013-01-21 18:49:00,13.3,4.4,30.04,West,270,0.0,0.0,67,0.00,,,0.00,WUHU215HW,2013-01-22 00:49:00,
2013-01-21 18:51:00,13.4,4.9,30.04,West,270,0.0,0.0,68,0.00,,,0.00,WUHU215HW,2013-01-22 00:51:00,
2013-01-21 18:52:00,13.5,4.9,30.04,West,270,0.0,0.0,68,0.00,,,0.00,WUHU215HW,2013-01-22 00:52:00,
2013-01-21 18:57:00,13.7,5.2,30.04,West,270,0.0,0.0,68,0.00,,,0.00,WUHU215HW,2013-01-22 00:57:00,
2013-01-21 18:58:00,13.8,5.2,30.04,West,270,0.0,0.0,68,0.00,,,0.00,WUHU215HW,2013-01-22 00:58:00,
2013-01-21 18:59:00,13.8,5.3,30.04,West,270,0.0,0.0,68,0.00,,,0.00,WUHU215HW,2013-01-22 00:59:00,
2013-01-21 19:03:00,14.0,5.5,30.04,West,270,0.0,0.0,68,0.00,,,0.00,WUHU215HW,2013-01-22 01:03:00,
2013-01-21 19:04:00,14.1,5.5,30.04,West,270,0.0,0.0,68,0.00,,,0.00,WUHU215HW,2013-01-22 01:04:00,
2013-01-21 19:05:00,14.1,5.6,30.04,West,270,0.0,0.0,68,0.00,,,0.00,WUHU215HW,2013-01-22 01:05:00,
2013-01-21 19:09:00,14.3,5.7,30.04,West,270,0.0,0.0,68,0.00,,,0.00,WUHU215HW,2013-01-22 01:09:00,
2013-01-21 19:10:00,14.3,5.7,30.04,West,270,0.0,0.0,68,0.00,,,0.00,WUHU215HW,2013-01-22 01:10:00,
2013-01-21 19:11:00,14.3,5.7,30.04,West,270,0.0,0.0,68,0.00,,,0.00,WUHU215HW,2013-01-22 01:11:00,
2013-01-21 19:15:00,14.3,5.7,30.04,West,270,0.0,0.0,68,0.00,,,0.00,WUHU215HW,2013-01-22 01:15:00,
2013-01-21 19:16:00,14.3,5.7,30.04,West,270,0.0,0.0,68,0.00,,,0.00,WUHU215HW,2013-01-22 01:16:00,
2013-01-21 19:18:00,14.3,5.7,30.04,West,270,0.0,0.0,68,0.00,,,0.00,WUHU215HW,2013-01-22 01:18:00,
2013-01-21 19:24:00,14.3,5.7,30.04,West,270,0.0,0.0,68,0.00,,,0.00,WUHU215HW,2013-01-22 01:24:00,
2013-01-21 19:29:00,14.3,5.7,30.04,West,270,0.0,0.0,68,0.00,,,0.00,WUHU215HW,2013-01-22 01:29:00,
2013-01-21 19:30:00,14.3,5.7,30.04,West,270,0.0,0.0,68,0.00,,,0.00,WUHU215HW,2013-01-22 01:30:00,
2013-01-21 19:34:00,14.1,5.7,30.04,West,270,0.0,0.0,69,0.00,,,0.00,WUHU215HW,2013-01-22 01:34:00,
2013-01-21 19:36:00,14.1,5.7,30.04,West,270,0.0,0.0,69,0.00,,,0.00,WUHU215HW,2013-01-22 01:36:00,
2013-01-21 19:37:00,14.1,5.7,30.04,West,270,0.0,0.0,69,0.00,,,0.00,WUHU215HW,2013-01-22 01:37:00,
2013-01-21 19:41:00,14.1,5.9,30.04,West,270,0.0,0.0,69,0.00,,,0.00,WUHU215HW,2013-01-22 01:41:00,
2013-01-21 19:42:00,14.1,5.9,30.04,West,270,0.0,0.0,69,0.00,,,0.00,WUHU215HW,2013-01-22 01:42:00,
2013-01-21 19:45:00,14.1,5.9,30.04,West,270,0.0,0.0,69,0.00,,,0.00,WUHU215HW,2013-01-22 01:45:00,
2013-01-21 19:46:00,14.1,5.9,30.04,West,270,0.0,0.0,69,0.00,,,0.00,WUHU215HW,2013-01-22 01:46:00,
2013-01-21 19:47:00,14.1,5.9,30.04,West,270,0.0,0.0,69,0.00,,,0.00,WUHU215HW,2013-01-22 01:47:00,
2013-01-21 19:49:00,14.1,5.9,30.04,West,270,0.0,0.0,69,0.00,,,0.00,WUHU215HW,2013-01-22 01:49:00,
2013-01-21 19:50:00,14.1,5.9,30.04,West,270,0.0,0.0,69,0.00,,,0.00,WUHU215HW,2013-01-22 01:50:00,
2013-01-21 19:52:00,14.1,5.9,30.04,West,270,0.0,0.0,69,0.00,,,0.00,WUHU215HW,2013-01-22 01:52:00,
2013-01-21 19:53:00,14.1,5.9,30.04,West,270,0.0,0.0,69,0.00,,,0.00,WUHU215HW,2013-01-22 01:53:00,
2013-01-21 19:55:00,14.1,5.9,30.04,West,270,0.0,0.0,69,0.00,,,0.00,WUHU215HW,2013-01-22 01:55:00,
2013-01-21 20:00:00,14.1,5.9,30.04,West,270,0.0,0.0,69,0.00,,,0.00,WUHU215HW,2013-01-22 02:00:00,
2013-01-21 20:02:00,14.1,6.2,30.04,West,270,0.0,0.0,70,0.00,,,0.00,WUHU215HW,2013-01-22 02:02:00,
2013-01-21 20:06:00,14.1,6.2,30.04,West,270,0.0,0.0,70,0.00,,,0.00,WUHU215HW,2013-01-22 02:06:00,
2013-01-21 20:07:00,14.1,6.2,30.04,West,270,0.0,0.0,70,0.00,,,0.00,WUHU215HW,2013-01-22 02:07:00,
2013-01-21 20:11:00,14.1,6.2,30.04,West,270,0.0,0.0,70,0.00,,,0.00,WUHU215HW,2013-01-22 02:11:00,
2013-01-21 20:12:00,14.1,6.2,30.04,West,270,0.0,0.0,70,0.00,,,0.00,WUHU215HW,2013-01-22 02:12:00,
2013-01-21 20:15:00,14.3,6.2,30.04,West,270,0.0,0.0,70,0.00,,,0.00,WUHU215HW,2013-01-22 02:15:00,
2013-01-21 20:20:00,14.3,6.2,30.04,West,270,0.0,0.0,70,0.00,,,0.00,WUHU215HW,2013-01-22 02:20:00,
2013-01-21 20:21:00,14.3,6.2,30.04,West,270,0.0,0.0,70,0.00,,,0.00,WUHU215HW,2013-01-22 02:21:00,
2013-01-21 20:25:00,14.3,6.4,30.04,West,270,0.0,0.0,70,0.00,,,0.00,WUHU215HW,2013-01-22 02:25:00,
2013-01-21 20:30:00,14.3,6.4,30.04,West,270,0.0,0.0,70,0.00,,,0.00,WUHU215HW,2013-01-22 02:30:00,
2013-01-21 20:32:00,14.3,6.4,30.04,West,270,0.0,0.0,70,0.00,,,0.00,WUHU215HW,2013-01-22 02:32:00,
2013-01-21 20:33:00,14.3,6.4,30.04,West,270,0.0,0.0,70,0.00,,,0.00,WUHU215HW,2013-01-22 02:33:00,
2013-01-21 20:37:00,14.3,6.4,30.04,West,270,0.0,0.0,70,0.00,,,0.00,WUHU215HW,2013-01-22 02:37:00,
2013-01-21 20:39:00,14.3,6.4,30.04,West,270,0.0,0.0,70,0.00,,,0.00,WUHU215HW,2013-01-22 02:39:00,
2013-01-21 20:40:00,14.3,6.4,30.04,West,270,0.0,0.0,70,0.00,,,0.00,WUHU215HW,2013-01-22 02:40:00,
2013-01-21 20:41:00,14.3,6.4,30.04,West,270,0.0,0.0,70,0.00,,,0.00,WUHU215HW,2013-01-22 02:41:00,
2013-01-21 20:42:00,14.3,6.4,30.04,West,270,0.0,0.0,70,0.00,,,0.00,WUHU215HW,2013-01-22 02:42:00,
2013-01-21 20:47:00,14.3,6.4,30.04,West,270,0.0,0.0,70,0.00,,,0.00,WUHU215HW,2013-01-22 02:47:00,
2013-01-21 20:49:00,14.3,6.4,30.04,West,270,0.0,0.0,70,0.00,,,0.00,WUHU215HW,2013-01-22 02:49:00,
2013-01-21 20:50:00,14.3,6.4,30.04,West,270,0.0,0.0,70,0.00,,,0.00,WUHU215HW,2013-01-22 02:50:00,
2013-01-21 20:54:00,14.3,6.4,30.04,West,270,0.0,0.0,70,0.00,,,0.00,WUHU215HW,2013-01-22 02:54:00,
2013-01-21 20:55:00,14.3,6.4,30.04,West,270,0.0,0.0,70,0.00,,,0.00,WUHU215HW,2013-01-22 02:55:00,
2013-01-21 20:58:00,14.3,6.4,30.04,West,270,0.0,0.0,70,0.00,,,0.00,WUHU215HW,2013-01-22 02:58:00,
2013-01-21 21:00:00,14.3,5.7,30.04,West,270,0.0,0.0,68,0.00,,,0.00,WUHU215HW,2013-01-22 03:00:00,
2013-01-21 21:01:00,14.3,5.7,30.04,West,270,0.0,0.0,68,0.00,,,0.00,WUHU215HW,2013-01-22 03:01:00,
2013-01-21 21:02:00,14.3,5.7,30.04,West,270,0.0,0.0,68,0.00,,,0.00,WUHU215HW,2013-01-22 03:02:00,
2013-01-21 21:03:00,14.3,5.7,30.04,West,270,0.0,0.0,68,0.00,,,0.00,WUHU215HW,2013-01-22 03:03:00,
2013-01-21 21:07:00,14.3,5.3,30.04,West,270,0.0,0.0,67,0.00,,,0.00,WUHU215HW,2013-01-22 03:07:00,
2013-01-21 21:08:00,14.3,5.3,30.04,West,270,0.0,0.0,67,0.00,,,0.00,WUHU215HW,2013-01-22 03:08:00,
2013-01-21 21:10:00,14.3,5.3,30.04,West,270,0.0,0.0,67,0.00,,,0.00,WUHU215HW,2013-01-22 03:10:00,
2013-01-21 21:11:00,14.1,5.2,30.04,West,270,0.0,0.0,67,0.00,,,0.00,WUHU215HW,2013-01-22 03:11:00,
2013-01-21 21:14:00,14.1,5.2,30.04,West,270,0.0,0.0,67,0.00,,,0.00,WUHU215HW,2013-01-22 03:14:00,
2013-01-21 21:15:00,14.1,5.2,30.04,West,270,0.0,0.0,67,0.00,,,0.00,WUHU215HW,2013-01-22 03:15:00,
2013-01-21 21:20:00,14.1,5.2,30.04,West,270,0.0,0.0,67,0.00,,,0.00,WUHU215HW,2013-01-22 03:20:00,
2013-01-21 21:22:00,14.3,5.2,30.04,West,270,0.0,0.0,67,0.00,,,0.00,WUHU215HW,2013-01-22 03:22:00,
2013-01-21 21:26:00,14.3,5.2,30.04,West,270,0.0,0.0,66,0.00,,,0.00,WUHU215HW,2013-01-22 03:26:00,
2013-01-21 21:27:00,14.3,5.2,30.04,West,270,0.0,0.0,66,0.00,,,0.00,WUHU215HW,2013-01-22 03:27:00,
2013-01-21 21:29:00,14.3,5.2,30.04,West,270,0.0,0.0,67,0.00,,,0.00,WUHU215HW,2013-01-22 03:29:00,
2013-01-21 21:30:00,14.3,5.3,30.04,West,270,0.0,0.0,67,0.00,,,0.00,WUHU215HW,2013-01-22 03:30:00,
2013-01-21 21:31:00,14.3,5.3,30.04,West,270,0.0,0.0,67,0.00,,,0.00,WUHU215HW,2013-01-22 03:31:00,
2013-01-21 21:32:00,14.3,5.3,30.04,West,270,0.0,0.0,67,0.00,,,0.00,WUHU215HW,2013-01-22 03:32:00,
2013-01-21 21:34:00,14.3,5.3,30.04,West,270,0.0,0.0,68,0.00,,,0.00,WUHU215HW,2013-01-22 03:34:00,
2013-01-21 21:37:00,14.1,5.3,30.04,West,270,0.0,0.0,68,0.00,,,0.00,WUHU215HW,2013-01-22 03:37:00,
2013-01-21 21:39:00,14.1,5.5,30.04,West,270,0.0,0.0,68,0.00,,,0.00,WUHU215HW,2013-01-22 03:39:00,
2013-01-21 21:41:00,14.1,5.5,30.04,West,270,0.0,0.0,68,0.00,,,0.00,WUHU215HW,2013-01-22 03:41:00,
2013-01-21 21:42:00,14.1,5.5,30.04,West,270,0.0,0.0,68,0.00,,,0.00,WUHU215HW,2013-01-22 03:42:00,
2013-01-21 21:44:00,14.1,5.5,30.04,West,270,0.0,0.0,68,0.00,,,0.00,WUHU215HW,2013-01-22 03:44:00,
2013-01-21 21:46:00,14.1,5.5,30.04,West,270,0.0,0.0,68,0.00,,,0.00,WUHU215HW,2013-01-22 03:46:00,
2013-01-21 21:51:00,14.1,5.5,30.04,West,270,0.0,0.0,68,0.00,,,0.00,WUHU215HW,2013-01-22 03:51:00,
2013-01-21 21:52:00,14.1,5.5,30.04,West,270,0.0,0.0,68,0.00,,,0.00,WUHU215HW,2013-01-22 03:52:00,
2013-01-21 21:54:00,14.1,5.9,30.04,West,270,0.0,0.0,69,0.00,,,0.00,WUHU215HW,2013-01-22 03:54:00,
2013-01-21 21:56:00,14.1,5.9,30.04,West,270,0.0,0.0,69,0.00,,,0.00,WUHU215HW,2013-01-22 03:56:00,
2013-01-21 21:59:00,14.1,5.9,30.04,West,270,0.0,0.0,69,0.00,,,0.00,WUHU215HW,2013-01-22 03:59:00,
2013-01-21 22:00:00,14.1,5.9,30.04,West,270,0.0,0.0,69,0.00,,,0.00,WUHU215HW,2013-01-22 04:00:00,
2013-01-21 22:01:00,14.1,5.9,30.04,West,270,0.0,0.0,69,0.00,,,0.00,WUHU215HW,2013-01-22 04:01:00,
2013-01-21 22:02:00,14.1,5.9,30.04,West,270,0.0,0.0,69,0.00,,,0.00,WUHU215HW,2013-01-22 04:02:00,
2013-01-21 22:05:00,14.1,5.9,30.04,West,270,0.0,0.0,69,0.00,,,0.00,WUHU215HW,2013-01-22 04:05:00,
2013-01-21 22:06:00,14.1,5.9,30.04,West,270,0.0,0.0,69,0.00,,,0.00,WUHU215HW,2013-01-22 04:06:00,
2013-01-21 22:07:00,14.1,5.9,30.04,West,270,0.0,0.0,69,0.00,,,0.00,WUHU215HW,2013-01-22 04:07:00,
2013-01-21 22:11:00,14.1,5.9,30.04,West,270,0.0,0.0,69,0.00,,,0.00,WUHU215HW,2013-01-22 04:11:00,
2013-01-21 22:13:00,14.1,6.2,30.04,West,270,0.0,0.0,70,0.00,,,0.00,WUHU215HW,2013-01-22 04:13:00,
2013-01-21 22:17:00,14.1,6.2,30.04,West,270,0.0,0.0,70,0.00,,,0.00,WUHU215HW,2013-01-22 04:17:00,
2013-01-21 22:18:00,14.1,6.2,30.04,West,270,0.0,0.0,70,0.00,,,0.00,WUHU215HW,2013-01-22 04:18:00,
2013-01-21 22:22:00,13.8,5.9,30.04,West,270,0.0,0.0,70,0.00,,,0.00,WUHU215HW,2013-01-22 04:22:00,
2013-01-21 22:23:00,13.8,5.9,30.04,West,270,0.0,0.0,70,0.00,,,0.00,WUHU215HW,2013-01-22 04:23:00,
2013-01-21 22:25:00,13.8,5.9,30.04,West,270,0.0,0.0,70,0.00,,,0.00,WUHU215HW,2013-01-22 04:25:00,
2013-01-21 22:27:00,13.8,5.9,30.04,West,270,0.0,0.0,70,0.00,,,0.00,WUHU215HW,2013-01-22 04:27:00,
2013-01-21 22:29:00,13.8,5.9,30.04,West,270,0.0,0.0,70,0.00,,,0.00,WUHU215HW,2013-01-22 04:29:00,
2013-01-21 22:32:00,13.8,5.9,30.04,West,270,0.0,0.0,70,0.00,,,0.00,WUHU215HW,2013-01-22 04:32:00,
2013-01-21 22:35:00,13.8,5.9,30.04,West,270,0.0,0.0,70,0.00,,,0.00,WUHU215HW,2013-01-22 04:35:00,
2013-01-21 22:36:00,13.8,5.9,30.04,West,270,0.0,0.0,70,0.00,,,0.00,WUHU215HW,2013-01-22 04:36:00,
2013-01-21 22:37:00,13.8,5.9,30.04,West,270,0.0,0.0,70,0.00,,,0.00,WUHU215HW,2013-01-22 04:37:00,
2013-01-21 22:42:00,13.8,5.9,30.04,West,270,0.0,0.0,70,0.00,,,0.00,WUHU215HW,2013-01-22 04:42:00,
2013-01-21 22:43:00,13.8,5.9,30.04,West,270,0.0,0.0,70,0.00,,,0.00,WUHU215HW,2013-01-22 04:43:00,
2013-01-21 22:45:00,13.8,5.9,30.04,West,270,0.0,0.0,70,0.00,,,0.00,WUHU215HW,2013-01-22 04:45:00,
2013-01-21 22:47:00,13.8,5.9,30.04,West,270,0.0,0.0,70,0.00,,,0.00,WUHU215HW,2013-01-22 04:47:00,
2013-01-21 22:48:00,13.8,5.9,30.04,West,270,0.0,0.0,70,0.00,,,0.00,WUHU215HW,2013-01-22 04:48:00,
2013-01-21 22:50:00,13.8,5.9,30.04,West,270,0.0,0.0,70,0.00,,,0.00,WUHU215HW,2013-01-22 04:50:00,
2013-01-21 22:51:00,13.8,5.9,30.04,West,270,0.0,0.0,70,0.00,,,0.00,WUHU215HW,2013-01-22 04:51:00,
2013-01-21 22:56:00,13.8,5.9,30.04,West,270,0.0,0.0,70,0.00,,,0.00,WUHU215HW,2013-01-22 04:56:00,
2013-01-21 22:58:00,13.8,5.9,30.04,West,270,0.0,0.0,70,0.00,,,0.00,WUHU215HW,2013-01-22 04:58:00,
2013-01-21 23:00:00,13.8,6.1,30.04,West,270,0.0,0.0,71,0.00,,,0.00,WUHU215HW,2013-01-22 05:00:00,
2013-01-21 23:02:00,13.8,6.1,30.04,West,270,0.0,0.0,70,0.00,,,0.00,WUHU215HW,2013-01-22 05:02:00,
2013-01-21 23:05:00,13.8,6.1,30.04,West,270,0.0,0.0,71,0.00,,,0.00,WUHU215HW,2013-01-22 05:05:00,
2013-01-21 23:10:00,13.8,6.1,30.04,West,270,0.0,0.0,71,0.00,,,0.00,WUHU215HW,2013-01-22 05:10:00,
2013-01-21 23:11:00,13.8,6.1,30.04,West,270,0.0,0.0,71,0.00,,,0.00,WUHU215HW,2013-01-22 05:11:00,
2013-01-21 23:12:00,13.8,6.1,30.04,West,270,0.0,0.0,71,0.00,,,0.00,WUHU215HW,2013-01-22 05:12:00,
2013-01-21 23:16:00,13.8,6.1,30.04,West,270,0.0,0.0,71,0.00,,,0.00,WUHU215HW,2013-01-22 05:16:00,
2013-01-21 23:17:00,13.8,6.1,30.04,West,270,0.0,0.0,71,0.00,,,0.00,WUHU215HW,2013-01-22 05:17:00,
2013-01-21 23:22:00,13.8,6.1,30.04,West,270,0.0,0.0,71,0.00,,,0.00,WUHU215HW,2013-01-22 05:22:00,
2013-01-21 23:23:00,13.8,6.1,30.04,West,270,0.0,0.0,71,0.00,,,0.00,WUHU215HW,2013-01-22 05:23:00,
2013-01-21 23:28:00,13.8,6.1,30.04,West,270,0.0,0.6,71,0.00,,,0.00,WUHU215HW,2013-01-22 05:28:00,
2013-01-21 23:33:00,13.8,6.1,30.04,West,270,0.0,0.6,71,0.00,,,0.00,WUHU215HW,2013-01-22 05:33:00,
2013-01-21 23:37:00,14.1,6.3,30.04,West,270,0.0,0.0,71,0.00,,,0.00,WUHU215HW,2013-01-22 05:37:00,
2013-01-21 23:38:00,14.1,6.3,30.04,West,270,0.0,0.0,71,0.00,,,0.00,WUHU215HW,2013-01-22 05:38:00,
2013-01-21 23:42:00,14.0,6.3,30.04,West,270,0.0,0.0,70,0.00,,,0.00,WUHU215HW,2013-01-22 05:42:00,
2013-01-21 23:44:00,14.0,6.3,30.04,West,270,0.0,0.0,70,0.00,,,0.00,WUHU215HW,2013-01-22 05:44:00,
2013-01-21 23:49:00,14.1,6.2,30.04,West,270,0.0,0.0,70,0.00,,,0.00,WUHU215HW,2013-01-22 05:49:00,
2013-01-21 23:52:00,14.1,6.2,30.04,West,270,0.0,0.0,70,0.00,,,0.00,WUHU215HW,2013-01-22 05:52:00,
2013-01-21 23:55:00,14.1,6.2,30.04,West,270,0.0,0.0,70,0.00,,,0.00,WUHU215HW,2013-01-22 05:55:00,
2013-01-21 23:56:00,14.1,6.2,30.04,West,270,0.0,0.0,70,0.00,,,0.00,WUHU215HW,2013-01-22 05:56:00,
2013-01-21 23:57:00,14.1,6.2,30.04,West,270,0.0,0.0,70,0.00,,,0.00,WUHU215HW,2013-01-22 05:57:00,